DLH726 EDDM-ZSPD
Flight info
| Callsign | DLH726 |
|---|---|
| Flight time | N/A |
| Altitude | 35000 |
| Route | KIRDI3S/26L KIRDI DCT MEDEL DCT STEIN DCT TEGRI/N0483F370 DCT UDROS UM859 KARDE UN644 ROLIN N644 TETRO DCT BARAD M747 SUBUT T916 LEYLA N161 GASBI/K0900F370 N161 ARLIF/K0904F390 N161 SARIN/K0878S1190 A368 FKG W188 BATUS/K0896S1250 W188 LIKMI W270 DKO W64 NUTLO B208 CGO W129 KAMDA W128 FYG B208 HFE R343 SASAN |
| Aircraft | A359/H-SDE2E3GHIJ3J4J5LM1ORWXYZ/LB1D1 |
Departure
| Time | 2026-05-05 20:30 |
|---|---|
| Airport | Munich Airport (EDDM) |
Arrival
| Time | N/A |
|---|---|
| Airport | Shanghai Pudong International Airport (ZSPD) |
| Time | Latitude | Longitude | Altitude | Speed | Heading |
|---|---|---|---|---|---|
| 2026-05-05 18:58 | 48.35887 | 11.79171 | 1479 ft | 0 kts | 264° |
| 2026-05-05 18:58 | 48.35891 | 11.79224 | 1475 ft | 0 kts | 263° |
| 2026-05-05 20:18 | 48.35893 | 11.79240 | 1478 ft | 4 kts | 263° |
| 2026-05-05 20:18 | 48.35896 | 11.79280 | 1480 ft | 3 kts | 263° |
| 2026-05-05 20:19 | 48.35898 | 11.79308 | 1476 ft | 4 kts | 281° |
| 2026-05-05 20:19 | 48.35891 | 11.79342 | 1476 ft | 3 kts | 277° |
| 2026-05-05 20:19 | 48.35889 | 11.79367 | 1476 ft | 4 kts | 236° |
| 2026-05-05 20:19 | 48.35893 | 11.79376 | 1476 ft | 4 kts | 180° |
| 2026-05-05 20:20 | 48.35918 | 11.79373 | 1476 ft | 4 kts | 173° |
| 2026-05-05 20:20 | 48.35927 | 11.79372 | 1476 ft | 0 kts | 173° |
| 2026-05-05 20:23 | 48.35922 | 11.79373 | 1491 ft | 2 kts | 169° |
| 2026-05-05 20:23 | 48.35898 | 11.79401 | 1478 ft | 8 kts | 130° |
| 2026-05-05 20:23 | 48.35845 | 11.79490 | 1476 ft | 15 kts | 139° |
| 2026-05-05 20:24 | 48.35746 | 11.79541 | 1488 ft | 15 kts | 174° |
| 2026-05-05 20:24 | 48.35639 | 11.79558 | 1484 ft | 16 kts | 174° |
| 2026-05-05 20:24 | 48.35528 | 11.79576 | 1491 ft | 16 kts | 174° |
| 2026-05-05 20:24 | 48.35415 | 11.79596 | 1489 ft | 17 kts | 173° |
| 2026-05-05 20:25 | 48.35299 | 11.79616 | 1477 ft | 17 kts | 174° |
| 2026-05-05 20:25 | 48.35182 | 11.79636 | 1478 ft | 17 kts | 171° |
| 2026-05-05 20:25 | 48.35063 | 11.79660 | 1485 ft | 17 kts | 173° |
| 2026-05-05 20:25 | 48.34942 | 11.79678 | 1490 ft | 18 kts | 174° |
| 2026-05-05 20:26 | 48.34880 | 11.79688 | 1477 ft | 3 kts | 173° |
| 2026-05-05 20:26 | 48.34851 | 11.79694 | 1487 ft | 6 kts | 171° |
| 2026-05-05 20:26 | 48.34811 | 11.79743 | 1477 ft | 9 kts | 113° |
| 2026-05-05 20:26 | 48.34814 | 11.79856 | 1486 ft | 13 kts | 84° |
| 2026-05-05 20:27 | 48.34826 | 11.80011 | 1478 ft | 17 kts | 83° |
| 2026-05-05 20:27 | 48.34840 | 11.80201 | 1477 ft | 16 kts | 84° |
| 2026-05-05 20:27 | 48.34814 | 11.80351 | 1478 ft | 15 kts | 130° |
| 2026-05-05 20:27 | 48.34719 | 11.80404 | 1484 ft | 15 kts | 176° |
| 2026-05-05 20:28 | 48.34614 | 11.80417 | 1488 ft | 15 kts | 175° |
| 2026-05-05 20:28 | 48.34543 | 11.80418 | 1487 ft | 15 kts | 184° |
| 2026-05-05 20:28 | 48.34483 | 11.80390 | 1476 ft | 7 kts | 222° |
| 2026-05-05 20:28 | 48.34472 | 11.80330 | 1481 ft | 3 kts | 263° |
| 2026-05-05 20:29 | 48.34471 | 11.80327 | 1486 ft | 0 kts | 262° |
| 2026-05-05 20:29 | 48.34470 | 11.80316 | 1487 ft | 8 kts | 262° |
| 2026-05-05 20:29 | 48.34456 | 11.80132 | 1492 ft | 47 kts | 263° |
| 2026-05-05 20:29 | 48.34365 | 11.78952 | 1480 ft | 122 kts | 263° |
| 2026-05-05 20:30 | 48.34289 | 11.77978 | 1480 ft | 155 kts | 263° |
| 2026-05-05 20:30 | 48.34162 | 11.76326 | 1996 ft | 156 kts | 263° |
| 2026-05-05 20:30 | 48.34034 | 11.74687 | 2570 ft | 161 kts | 263° |
| 2026-05-05 20:30 | 48.33895 | 11.72994 | 2947 ft | 168 kts | 263° |
| 2026-05-05 20:31 | 48.33365 | 11.71379 | 3142 ft | 187 kts | 224° |
| 2026-05-05 20:31 | 48.32088 | 11.70778 | 3389 ft | 206 kts | 181° |
| 2026-05-05 20:31 | 48.30631 | 11.71038 | 3767 ft | 213 kts | 179° |
| 2026-05-05 20:31 | 48.29134 | 11.71224 | 4138 ft | 220 kts | 180° |
| 2026-05-05 20:32 | 48.27642 | 11.71949 | 4442 ft | 238 kts | 152° |
| 2026-05-05 20:32 | 48.26273 | 11.73446 | 4720 ft | 254 kts | 145° |
| 2026-05-05 20:32 | 48.24840 | 11.75096 | 5043 ft | 266 kts | 146° |
| 2026-05-05 20:32 | 48.23319 | 11.76784 | 5399 ft | 277 kts | 147° |
| 2026-05-05 20:33 | 48.21721 | 11.78459 | 5870 ft | 284 kts | 148° |
| 2026-05-05 20:33 | 48.20203 | 11.80396 | 6364 ft | 290 kts | 130° |
| 2026-05-05 20:33 | 48.19217 | 11.82970 | 7149 ft | 284 kts | 111° |
| 2026-05-05 20:33 | 48.18850 | 11.85867 | 7797 ft | 285 kts | 92° |
| 2026-05-05 20:34 | 48.18878 | 11.88873 | 8237 ft | 293 kts | 89° |
| 2026-05-05 20:34 | 48.18956 | 11.91959 | 8687 ft | 300 kts | 89° |
| 2026-05-05 20:34 | 48.19034 | 11.95067 | 9172 ft | 305 kts | 89° |
| 2026-05-05 20:34 | 48.19097 | 11.98270 | 9687 ft | 310 kts | 90° |
| 2026-05-05 20:35 | 48.19168 | 12.01516 | 10185 ft | 314 kts | 89° |
| 2026-05-05 20:35 | 48.19243 | 12.04826 | 10534 ft | 324 kts | 90° |
| 2026-05-05 20:35 | 48.19303 | 12.08263 | 10781 ft | 337 kts | 90° |
| 2026-05-05 20:35 | 48.19369 | 12.11835 | 11028 ft | 349 kts | 90° |
| 2026-05-05 20:36 | 48.19445 | 12.15514 | 11270 ft | 360 kts | 89° |
| 2026-05-05 20:36 | 48.19527 | 12.19336 | 11509 ft | 371 kts | 89° |
| 2026-05-05 20:36 | 48.19612 | 12.23252 | 11767 ft | 381 kts | 89° |
| 2026-05-05 20:36 | 48.19698 | 12.27173 | 12174 ft | 385 kts | 89° |
| 2026-05-05 20:37 | 48.19786 | 12.31217 | 12632 ft | 388 kts | 89° |
| 2026-05-05 20:37 | 48.19873 | 12.35267 | 13072 ft | 390 kts | 89° |
| 2026-05-05 20:37 | 48.19958 | 12.39346 | 13536 ft | 393 kts | 89° |
| 2026-05-05 20:37 | 48.20044 | 12.43450 | 13935 ft | 395 kts | 89° |
| 2026-05-05 20:38 | 48.20128 | 12.47581 | 14325 ft | 398 kts | 89° |
| 2026-05-05 20:38 | 48.20210 | 12.51735 | 14721 ft | 400 kts | 89° |
| 2026-05-05 20:38 | 48.20292 | 12.55916 | 15122 ft | 403 kts | 90° |
| 2026-05-05 20:38 | 48.20373 | 12.60129 | 15517 ft | 405 kts | 90° |
| 2026-05-05 20:39 | 48.20451 | 12.64302 | 15907 ft | 407 kts | 90° |
| 2026-05-05 20:39 | 48.20530 | 12.68557 | 16299 ft | 410 kts | 90° |
| 2026-05-05 20:39 | 48.20607 | 12.72843 | 16702 ft | 412 kts | 90° |
| 2026-05-05 20:39 | 48.20683 | 12.77148 | 17083 ft | 415 kts | 90° |
| 2026-05-05 20:40 | 48.20759 | 12.81476 | 17482 ft | 417 kts | 90° |
| 2026-05-05 20:40 | 48.20825 | 12.85838 | 17855 ft | 419 kts | 91° |
| 2026-05-05 20:40 | 48.20850 | 12.90220 | 18216 ft | 422 kts | 91° |
| 2026-05-05 20:40 | 48.20849 | 12.94637 | 18528 ft | 424 kts | 92° |
| 2026-05-05 20:41 | 48.20840 | 12.99068 | 18854 ft | 426 kts | 92° |
| 2026-05-05 20:41 | 48.20831 | 13.03454 | 19164 ft | 428 kts | 92° |
| 2026-05-05 20:41 | 48.20827 | 13.07937 | 19485 ft | 431 kts | 92° |
| 2026-05-05 20:41 | 48.20825 | 13.12433 | 19806 ft | 433 kts | 92° |
| 2026-05-05 20:42 | 48.20825 | 13.16957 | 20108 ft | 435 kts | 92° |
| 2026-05-05 20:42 | 48.20825 | 13.21495 | 20418 ft | 437 kts | 92° |
| 2026-05-05 20:42 | 48.20824 | 13.26060 | 20721 ft | 439 kts | 92° |
| 2026-05-05 20:42 | 48.20820 | 13.30645 | 21040 ft | 441 kts | 92° |
| 2026-05-05 20:43 | 48.20815 | 13.35187 | 21336 ft | 443 kts | 92° |
| 2026-05-05 20:43 | 48.20808 | 13.39810 | 21635 ft | 445 kts | 92° |
| 2026-05-05 20:43 | 48.20799 | 13.44458 | 21927 ft | 447 kts | 93° |
| 2026-05-05 20:43 | 48.20787 | 13.49127 | 22237 ft | 449 kts | 93° |
| 2026-05-05 20:44 | 48.20774 | 13.53813 | 22526 ft | 451 kts | 93° |
| 2026-05-05 20:44 | 48.20758 | 13.58531 | 22844 ft | 453 kts | 93° |
| 2026-05-05 20:44 | 48.20686 | 13.63266 | 23138 ft | 454 kts | 97° |
| 2026-05-05 20:44 | 48.20232 | 13.67933 | 23410 ft | 452 kts | 106° |
| 2026-05-05 20:45 | 48.18362 | 13.76839 | 23905 ft | 452 kts | 113° |
| 2026-05-05 20:45 | 48.17265 | 13.81261 | 24152 ft | 454 kts | 114° |
| 2026-05-05 20:45 | 48.16134 | 13.85662 | 24405 ft | 455 kts | 114° |
| 2026-05-05 20:46 | 48.15017 | 13.90116 | 24668 ft | 457 kts | 113° |
| 2026-05-05 20:46 | 48.13958 | 13.94626 | 24916 ft | 459 kts | 112° |
| 2026-05-05 20:46 | 48.12940 | 13.99163 | 25151 ft | 462 kts | 111° |
| 2026-05-05 20:46 | 48.11929 | 14.03732 | 25401 ft | 464 kts | 111° |
| 2026-05-05 20:47 | 48.10925 | 14.08263 | 25658 ft | 465 kts | 111° |
| 2026-05-05 20:47 | 48.09897 | 14.12863 | 25904 ft | 467 kts | 112° |
| 2026-05-05 20:47 | 48.08859 | 14.17462 | 26157 ft | 469 kts | 112° |
| 2026-05-05 20:47 | 48.07819 | 14.22034 | 26407 ft | 470 kts | 112° |
| 2026-05-05 20:48 | 48.06759 | 14.26667 | 26667 ft | 472 kts | 112° |
| 2026-05-05 20:48 | 48.05692 | 14.31313 | 26926 ft | 474 kts | 112° |
| 2026-05-05 20:48 | 48.04617 | 14.35982 | 27166 ft | 476 kts | 112° |
| 2026-05-05 20:48 | 48.03540 | 14.40653 | 27412 ft | 478 kts | 112° |
| 2026-05-05 20:49 | 48.02449 | 14.45371 | 27698 ft | 479 kts | 112° |
| 2026-05-05 20:49 | 48.01358 | 14.50086 | 27965 ft | 481 kts | 112° |
| 2026-05-05 20:49 | 48.00260 | 14.54819 | 28216 ft | 483 kts | 112° |
| 2026-05-05 20:49 | 47.99157 | 14.59563 | 28466 ft | 486 kts | 112° |
| 2026-05-05 20:50 | 47.98049 | 14.64321 | 28723 ft | 487 kts | 112° |
| 2026-05-05 20:50 | 47.96945 | 14.69050 | 28999 ft | 489 kts | 112° |
| 2026-05-05 20:50 | 47.95822 | 14.73853 | 29255 ft | 491 kts | 112° |
| 2026-05-05 20:50 | 47.94696 | 14.78654 | 29479 ft | 493 kts | 112° |
| 2026-05-05 20:51 | 47.93556 | 14.83500 | 29696 ft | 495 kts | 112° |
| 2026-05-05 20:51 | 47.92414 | 14.88345 | 29936 ft | 497 kts | 112° |
| 2026-05-05 20:51 | 47.91265 | 14.93212 | 30144 ft | 498 kts | 112° |
| 2026-05-05 20:51 | 47.90110 | 14.98094 | 30347 ft | 500 kts | 112° |
| 2026-05-05 20:52 | 47.88951 | 15.02978 | 30551 ft | 501 kts | 112° |
| 2026-05-05 20:52 | 47.87801 | 15.07817 | 30738 ft | 503 kts | 112° |
| 2026-05-05 20:52 | 47.86633 | 15.12724 | 30951 ft | 504 kts | 112° |
| 2026-05-05 20:52 | 47.85459 | 15.17644 | 31221 ft | 504 kts | 112° |
| 2026-05-05 20:53 | 47.84286 | 15.22552 | 31529 ft | 503 kts | 112° |
| 2026-05-05 20:53 | 47.83110 | 15.27458 | 31811 ft | 502 kts | 112° |
| 2026-05-05 20:53 | 47.81936 | 15.32340 | 32112 ft | 502 kts | 112° |
| 2026-05-05 20:53 | 47.80759 | 15.37228 | 32389 ft | 501 kts | 112° |
| 2026-05-05 20:54 | 47.79581 | 15.42110 | 32667 ft | 501 kts | 112° |
| 2026-05-05 20:54 | 47.78418 | 15.46913 | 32938 ft | 500 kts | 111° |
| 2026-05-05 20:54 | 47.77223 | 15.51838 | 33218 ft | 500 kts | 111° |
| 2026-05-05 20:54 | 47.76059 | 15.56629 | 33471 ft | 500 kts | 111° |
| 2026-05-05 20:55 | 47.74873 | 15.61496 | 33744 ft | 500 kts | 111° |
| 2026-05-05 20:55 | 47.73691 | 15.66341 | 33970 ft | 499 kts | 111° |
| 2026-05-05 20:55 | 47.72507 | 15.71180 | 34218 ft | 499 kts | 111° |
| 2026-05-05 20:55 | 47.71321 | 15.76022 | 34448 ft | 498 kts | 111° |
| 2026-05-05 20:56 | 47.70134 | 15.80854 | 34624 ft | 499 kts | 111° |
| 2026-05-05 20:56 | 47.68960 | 15.85620 | 34821 ft | 498 kts | 111° |
| 2026-05-05 20:56 | 47.67768 | 15.90451 | 35024 ft | 498 kts | 111° |
| 2026-05-05 20:56 | 47.66576 | 15.95272 | 35241 ft | 498 kts | 111° |
| 2026-05-05 20:57 | 47.65382 | 16.00090 | 35440 ft | 498 kts | 111° |
| 2026-05-05 20:57 | 47.64188 | 16.04895 | 35632 ft | 498 kts | 112° |
| 2026-05-05 20:57 | 47.62990 | 16.09712 | 35810 ft | 498 kts | 112° |
| 2026-05-05 20:57 | 47.61788 | 16.14532 | 36010 ft | 498 kts | 112° |
| 2026-05-05 20:58 | 47.60584 | 16.19348 | 36179 ft | 498 kts | 112° |
| 2026-05-05 20:58 | 47.59380 | 16.24156 | 36343 ft | 498 kts | 112° |
| 2026-05-05 20:58 | 47.58173 | 16.28966 | 36523 ft | 498 kts | 112° |
| 2026-05-05 20:58 | 47.56979 | 16.33712 | 36686 ft | 498 kts | 112° |
| 2026-05-05 20:59 | 47.55766 | 16.38522 | 36816 ft | 499 kts | 112° |
| 2026-05-05 20:59 | 47.54548 | 16.43342 | 36830 ft | 502 kts | 112° |
| 2026-05-05 20:59 | 47.52083 | 16.53067 | 36830 ft | 506 kts | 112° |
| 2026-05-05 21:00 | 47.49607 | 16.62800 | 36836 ft | 505 kts | 112° |
| 2026-05-05 21:00 | 47.47149 | 16.72429 | 36844 ft | 504 kts | 112° |
| 2026-05-05 21:01 | 47.44659 | 16.82124 | 36850 ft | 504 kts | 112° |
| 2026-05-05 21:01 | 47.42166 | 16.91793 | 36855 ft | 504 kts | 112° |
| 2026-05-05 21:02 | 47.39660 | 17.01474 | 36860 ft | 504 kts | 112° |
| 2026-05-05 21:02 | 47.37152 | 17.11122 | 36875 ft | 504 kts | 112° |
| 2026-05-05 21:03 | 47.34651 | 17.20708 | 36884 ft | 504 kts | 112° |
| 2026-05-05 21:03 | 47.32126 | 17.30342 | 36883 ft | 504 kts | 112° |
| 2026-05-05 21:04 | 47.29591 | 17.39973 | 36884 ft | 504 kts | 112° |
| 2026-05-05 21:04 | 47.27068 | 17.49521 | 36884 ft | 503 kts | 112° |
| 2026-05-05 21:05 | 47.24523 | 17.59112 | 36886 ft | 503 kts | 112° |
| 2026-05-05 21:05 | 47.21972 | 17.68684 | 36890 ft | 503 kts | 112° |
| 2026-05-05 21:06 | 47.19411 | 17.78256 | 36900 ft | 503 kts | 112° |
| 2026-05-05 21:06 | 47.16844 | 17.87811 | 36908 ft | 502 kts | 112° |
| 2026-05-05 21:07 | 47.14290 | 17.97283 | 36920 ft | 502 kts | 112° |
| 2026-05-05 21:07 | 47.11709 | 18.06811 | 36927 ft | 502 kts | 113° |
| 2026-05-05 21:08 | 47.09123 | 18.16325 | 36927 ft | 502 kts | 113° |
| 2026-05-05 21:08 | 47.06529 | 18.25826 | 36930 ft | 502 kts | 113° |
| 2026-05-05 21:09 | 47.03926 | 18.35324 | 36931 ft | 502 kts | 113° |
| 2026-05-05 21:09 | 47.01336 | 18.44736 | 36940 ft | 502 kts | 113° |
| 2026-05-05 21:10 | 46.98718 | 18.54211 | 36945 ft | 502 kts | 113° |
| 2026-05-05 21:10 | 46.96094 | 18.63674 | 36947 ft | 501 kts | 113° |
| 2026-05-05 21:11 | 46.93461 | 18.73128 | 36950 ft | 501 kts | 113° |
| 2026-05-05 21:11 | 46.90842 | 18.82496 | 36952 ft | 501 kts | 113° |
| 2026-05-05 21:12 | 46.88197 | 18.91922 | 36952 ft | 501 kts | 113° |
| 2026-05-05 21:12 | 46.85546 | 19.01330 | 36955 ft | 501 kts | 113° |
| 2026-05-05 21:13 | 46.82892 | 19.10716 | 36960 ft | 500 kts | 114° |
| 2026-05-05 21:13 | 46.80230 | 19.20088 | 36959 ft | 500 kts | 114° |
| 2026-05-05 21:14 | 46.77575 | 19.29403 | 36962 ft | 500 kts | 114° |
| 2026-05-05 21:14 | 46.74897 | 19.38763 | 36961 ft | 500 kts | 114° |
| 2026-05-05 21:15 | 46.72216 | 19.48098 | 36963 ft | 500 kts | 114° |
| 2026-05-05 21:15 | 46.69524 | 19.57434 | 36961 ft | 499 kts | 114° |
| 2026-05-05 21:16 | 46.66844 | 19.66695 | 36963 ft | 499 kts | 114° |
| 2026-05-05 21:16 | 46.64138 | 19.76010 | 36963 ft | 500 kts | 114° |
| 2026-05-05 21:17 | 46.61425 | 19.85311 | 36966 ft | 500 kts | 114° |
| 2026-05-05 21:17 | 46.58702 | 19.94614 | 36957 ft | 500 kts | 114° |
| 2026-05-05 21:18 | 46.55994 | 20.03833 | 36955 ft | 500 kts | 114° |
| 2026-05-05 21:18 | 46.53259 | 20.13105 | 36955 ft | 500 kts | 114° |
| 2026-05-05 21:19 | 46.50513 | 20.22380 | 36945 ft | 500 kts | 114° |
| 2026-05-05 21:19 | 46.47761 | 20.31641 | 36949 ft | 500 kts | 114° |
| 2026-05-05 21:20 | 46.45020 | 20.40831 | 36952 ft | 500 kts | 114° |
| 2026-05-05 21:20 | 46.42254 | 20.50072 | 36949 ft | 500 kts | 114° |
| 2026-05-05 21:21 | 46.39479 | 20.59310 | 36946 ft | 500 kts | 114° |
| 2026-05-05 21:21 | 46.36699 | 20.68528 | 36944 ft | 500 kts | 114° |
| 2026-05-05 21:22 | 46.33909 | 20.77745 | 36948 ft | 500 kts | 114° |
| 2026-05-05 21:22 | 46.31132 | 20.86885 | 36945 ft | 500 kts | 114° |
| 2026-05-05 21:23 | 46.28326 | 20.96088 | 36945 ft | 500 kts | 114° |
| 2026-05-05 21:23 | 46.25517 | 21.05270 | 36942 ft | 500 kts | 114° |
| 2026-05-05 21:24 | 46.22701 | 21.14448 | 36939 ft | 499 kts | 114° |
| 2026-05-05 21:24 | 46.19896 | 21.23544 | 36937 ft | 499 kts | 114° |
| 2026-05-05 21:25 | 46.17068 | 21.32682 | 36940 ft | 499 kts | 114° |
| 2026-05-05 21:25 | 46.14228 | 21.41826 | 36939 ft | 499 kts | 114° |
| 2026-05-05 21:26 | 46.11384 | 21.50954 | 36944 ft | 499 kts | 114° |
| 2026-05-05 21:26 | 46.08533 | 21.60070 | 36956 ft | 499 kts | 114° |
| 2026-05-05 21:27 | 46.05694 | 21.69118 | 36960 ft | 499 kts | 114° |
| 2026-05-05 21:27 | 46.02830 | 21.78211 | 36970 ft | 499 kts | 114° |
| 2026-05-05 21:28 | 45.99958 | 21.87301 | 36971 ft | 499 kts | 114° |
| 2026-05-05 21:28 | 45.97078 | 21.96377 | 36975 ft | 499 kts | 114° |
| 2026-05-05 21:29 | 45.94191 | 22.05450 | 36975 ft | 499 kts | 114° |
| 2026-05-05 21:29 | 45.91319 | 22.14442 | 36984 ft | 498 kts | 115° |
| 2026-05-05 21:30 | 45.88422 | 22.23478 | 36989 ft | 498 kts | 115° |
| 2026-05-05 21:30 | 45.85517 | 22.32508 | 36995 ft | 498 kts | 115° |
| 2026-05-05 21:31 | 45.82622 | 22.41477 | 36999 ft | 499 kts | 115° |
| 2026-05-05 21:31 | 45.79705 | 22.50486 | 37002 ft | 499 kts | 115° |
| 2026-05-05 21:32 | 45.76779 | 22.59491 | 37008 ft | 499 kts | 115° |
| 2026-05-05 21:32 | 45.73846 | 22.68483 | 37009 ft | 498 kts | 115° |
| 2026-05-05 21:33 | 45.70905 | 22.77468 | 37014 ft | 498 kts | 115° |
| 2026-05-05 21:33 | 45.67977 | 22.86382 | 37022 ft | 499 kts | 115° |
| 2026-05-05 21:34 | 45.65022 | 22.95348 | 37026 ft | 498 kts | 115° |
| 2026-05-05 21:34 | 45.62064 | 23.04295 | 37032 ft | 498 kts | 115° |
| 2026-05-05 21:35 | 45.59101 | 23.13223 | 37038 ft | 498 kts | 115° |
| 2026-05-05 21:35 | 45.56149 | 23.22093 | 37046 ft | 497 kts | 115° |
| 2026-05-05 21:36 | 45.53173 | 23.31000 | 37046 ft | 497 kts | 115° |
| 2026-05-05 21:36 | 45.50195 | 23.39886 | 37059 ft | 497 kts | 115° |
| 2026-05-05 21:37 | 45.47205 | 23.48775 | 37053 ft | 497 kts | 114° |
| 2026-05-05 21:37 | 45.44205 | 23.57663 | 37057 ft | 497 kts | 114° |
| 2026-05-05 21:38 | 45.41205 | 23.66526 | 37060 ft | 498 kts | 114° |
| 2026-05-05 21:38 | 45.38210 | 23.75342 | 37058 ft | 498 kts | 115° |
| 2026-05-05 21:39 | 45.35189 | 23.84207 | 37052 ft | 498 kts | 115° |
| 2026-05-05 21:39 | 45.32161 | 23.93065 | 37053 ft | 498 kts | 115° |
| 2026-05-05 21:40 | 45.29147 | 24.01847 | 37049 ft | 498 kts | 115° |
| 2026-05-05 21:40 | 45.26108 | 24.10676 | 37050 ft | 498 kts | 115° |
| 2026-05-05 21:41 | 45.23058 | 24.19506 | 37046 ft | 498 kts | 115° |
| 2026-05-05 21:41 | 45.20004 | 24.28318 | 37039 ft | 498 kts | 115° |
| 2026-05-05 21:42 | 45.16945 | 24.37116 | 37040 ft | 498 kts | 115° |
| 2026-05-05 21:42 | 45.13898 | 24.45851 | 37041 ft | 498 kts | 115° |
| 2026-05-05 21:43 | 45.10824 | 24.54635 | 37038 ft | 498 kts | 115° |
| 2026-05-05 21:43 | 45.07743 | 24.63409 | 37036 ft | 498 kts | 115° |
| 2026-05-05 21:44 | 45.04655 | 24.72177 | 37037 ft | 498 kts | 115° |
| 2026-05-05 21:44 | 45.01579 | 24.80880 | 37037 ft | 498 kts | 115° |
| 2026-05-05 21:45 | 44.98477 | 24.89631 | 37030 ft | 498 kts | 115° |
| 2026-05-05 21:45 | 44.95366 | 24.98376 | 37028 ft | 498 kts | 115° |
| 2026-05-05 21:46 | 44.92249 | 25.07112 | 37028 ft | 498 kts | 115° |
| 2026-05-05 21:46 | 44.89122 | 25.15845 | 37027 ft | 498 kts | 115° |
| 2026-05-05 21:47 | 44.86013 | 25.24503 | 37027 ft | 498 kts | 115° |
| 2026-05-05 21:47 | 44.82876 | 25.33211 | 37027 ft | 498 kts | 115° |
| 2026-05-05 21:48 | 44.79734 | 25.41903 | 37028 ft | 498 kts | 115° |
| 2026-05-05 21:48 | 44.76584 | 25.50593 | 37029 ft | 498 kts | 115° |
| 2026-05-05 21:49 | 44.73452 | 25.59203 | 37032 ft | 498 kts | 115° |
| 2026-05-05 21:49 | 44.70292 | 25.67862 | 37016 ft | 498 kts | 115° |
| 2026-05-05 21:50 | 44.67124 | 25.76517 | 37034 ft | 498 kts | 115° |
| 2026-05-05 21:50 | 44.63950 | 25.85161 | 37020 ft | 498 kts | 116° |
| 2026-05-05 21:51 | 44.60797 | 25.93721 | 37019 ft | 497 kts | 116° |
| 2026-05-05 21:51 | 44.57613 | 26.02339 | 37023 ft | 497 kts | 116° |
| 2026-05-05 21:52 | 44.52829 | 26.15236 | 37020 ft | 497 kts | 116° |
| 2026-05-05 21:53 | 44.49633 | 26.23819 | 37018 ft | 497 kts | 116° |
| 2026-05-05 21:53 | 44.46427 | 26.32402 | 37024 ft | 497 kts | 116° |
| 2026-05-05 21:54 | 44.43238 | 26.40912 | 37019 ft | 497 kts | 116° |
| 2026-05-05 21:54 | 44.40020 | 26.49474 | 37017 ft | 497 kts | 116° |
| 2026-05-05 21:55 | 44.36795 | 26.58028 | 37024 ft | 497 kts | 116° |
| 2026-05-05 21:55 | 44.33565 | 26.66570 | 37029 ft | 497 kts | 116° |
| 2026-05-05 21:56 | 44.30349 | 26.75048 | 37030 ft | 497 kts | 116° |
| 2026-05-05 21:56 | 44.27106 | 26.83571 | 37029 ft | 497 kts | 116° |
| 2026-05-05 21:57 | 44.23861 | 26.92074 | 37034 ft | 496 kts | 116° |
| 2026-05-05 21:57 | 44.20613 | 27.00558 | 37033 ft | 496 kts | 116° |
| 2026-05-05 21:58 | 44.17381 | 27.08976 | 37038 ft | 496 kts | 116° |
| 2026-05-05 21:58 | 44.14121 | 27.17442 | 37040 ft | 496 kts | 116° |
| 2026-05-05 21:59 | 44.10858 | 27.25889 | 37044 ft | 496 kts | 117° |
| 2026-05-05 21:59 | 44.07586 | 27.34334 | 37042 ft | 496 kts | 117° |
| 2026-05-05 22:00 | 44.04311 | 27.42762 | 37050 ft | 495 kts | 117° |
| 2026-05-05 22:00 | 44.01053 | 27.51119 | 37051 ft | 495 kts | 117° |
| 2026-05-05 22:01 | 43.97769 | 27.59520 | 37059 ft | 495 kts | 117° |
| 2026-05-05 22:01 | 43.94481 | 27.67907 | 37059 ft | 494 kts | 117° |
| 2026-05-05 22:02 | 43.91188 | 27.76280 | 37063 ft | 494 kts | 117° |
| 2026-05-05 22:02 | 43.87911 | 27.84589 | 37066 ft | 494 kts | 117° |
| 2026-05-05 22:03 | 43.84607 | 27.92939 | 37068 ft | 494 kts | 117° |
| 2026-05-05 22:03 | 43.81300 | 28.01275 | 37072 ft | 494 kts | 117° |
| 2026-05-05 22:04 | 43.77981 | 28.09614 | 37074 ft | 494 kts | 117° |
| 2026-05-05 22:04 | 43.74684 | 28.17874 | 37068 ft | 494 kts | 117° |
| 2026-05-05 22:05 | 43.71351 | 28.26201 | 37071 ft | 495 kts | 117° |
| 2026-05-05 22:05 | 43.68016 | 28.34510 | 37071 ft | 495 kts | 117° |
| 2026-05-05 22:06 | 43.64675 | 28.42809 | 37074 ft | 495 kts | 117° |
| 2026-05-05 22:06 | 43.61324 | 28.51107 | 37074 ft | 495 kts | 117° |
| 2026-05-05 22:07 | 43.57988 | 28.59343 | 37080 ft | 495 kts | 117° |
| 2026-05-05 22:07 | 43.54627 | 28.67621 | 37080 ft | 495 kts | 117° |
| 2026-05-05 22:08 | 43.51257 | 28.75893 | 37077 ft | 495 kts | 117° |
| 2026-05-05 22:08 | 43.47878 | 28.84166 | 37081 ft | 495 kts | 117° |
| 2026-05-05 22:09 | 43.44515 | 28.92374 | 37076 ft | 495 kts | 117° |
| 2026-05-05 22:09 | 43.41126 | 29.00622 | 37076 ft | 496 kts | 117° |
| 2026-05-05 22:10 | 43.37728 | 29.08870 | 37073 ft | 496 kts | 117° |
| 2026-05-05 22:10 | 43.34350 | 29.17045 | 37074 ft | 496 kts | 117° |
| 2026-05-05 22:11 | 43.30933 | 29.25291 | 37074 ft | 496 kts | 117° |
| 2026-05-05 22:11 | 43.27517 | 29.33511 | 37079 ft | 496 kts | 117° |
| 2026-05-05 22:12 | 43.24093 | 29.41728 | 37077 ft | 496 kts | 117° |
| 2026-05-05 22:12 | 43.20658 | 29.49947 | 37073 ft | 496 kts | 117° |
| 2026-05-05 22:13 | 43.17220 | 29.58151 | 37074 ft | 497 kts | 117° |
| 2026-05-05 22:13 | 43.13796 | 29.66295 | 37070 ft | 497 kts | 117° |
| 2026-05-05 22:14 | 43.10343 | 29.74489 | 37073 ft | 497 kts | 117° |
| 2026-05-05 22:14 | 43.06884 | 29.82671 | 37075 ft | 497 kts | 117° |
| 2026-05-05 22:15 | 43.03424 | 29.90835 | 37075 ft | 496 kts | 117° |
| 2026-05-05 22:15 | 42.99978 | 29.98942 | 37073 ft | 496 kts | 117° |
| 2026-05-05 22:16 | 42.96507 | 30.07084 | 37073 ft | 496 kts | 117° |
| 2026-05-05 22:16 | 42.93027 | 30.15227 | 37072 ft | 496 kts | 117° |
| 2026-05-05 22:17 | 42.89540 | 30.23362 | 37069 ft | 496 kts | 117° |
| 2026-05-05 22:17 | 42.86050 | 30.31482 | 37058 ft | 497 kts | 117° |
| 2026-05-05 22:18 | 42.82575 | 30.39546 | 37060 ft | 497 kts | 117° |
| 2026-05-05 22:18 | 42.79070 | 30.47655 | 37063 ft | 497 kts | 117° |
| 2026-05-05 22:19 | 42.75617 | 30.55794 | 37062 ft | 495 kts | 113° |
| 2026-05-05 22:19 | 42.73441 | 30.64573 | 37072 ft | 487 kts | 97° |
| 2026-05-05 22:20 | 42.72389 | 30.73589 | 37062 ft | 486 kts | 95° |
| 2026-05-05 22:20 | 42.71503 | 30.82704 | 37063 ft | 486 kts | 94° |
| 2026-05-05 22:21 | 42.70612 | 30.91804 | 37063 ft | 486 kts | 95° |
| 2026-05-05 22:21 | 42.69685 | 31.00899 | 37061 ft | 486 kts | 95° |
| 2026-05-05 22:22 | 42.68744 | 31.09927 | 37060 ft | 486 kts | 95° |
| 2026-05-05 22:22 | 42.67786 | 31.19020 | 37060 ft | 486 kts | 95° |
| 2026-05-05 22:23 | 42.66823 | 31.28106 | 37057 ft | 486 kts | 95° |
| 2026-05-05 22:23 | 42.65854 | 31.37190 | 37059 ft | 486 kts | 95° |
| 2026-05-05 22:24 | 42.64884 | 31.46217 | 37058 ft | 486 kts | 95° |
| 2026-05-05 22:24 | 42.63901 | 31.55286 | 37057 ft | 486 kts | 95° |
| 2026-05-05 22:25 | 42.62911 | 31.64363 | 37058 ft | 486 kts | 95° |
| 2026-05-05 22:25 | 42.61913 | 31.73435 | 37060 ft | 486 kts | 96° |
| 2026-05-05 22:26 | 42.60915 | 31.82442 | 37057 ft | 486 kts | 96° |
| 2026-05-05 22:26 | 42.59903 | 31.91503 | 37062 ft | 485 kts | 96° |
| 2026-05-05 22:27 | 42.58885 | 32.00559 | 37050 ft | 485 kts | 96° |
| 2026-05-05 22:27 | 42.57876 | 32.09611 | 37057 ft | 485 kts | 96° |
| 2026-05-05 22:28 | 42.56856 | 32.18587 | 37052 ft | 485 kts | 96° |
| 2026-05-05 22:28 | 42.55815 | 32.27615 | 37057 ft | 485 kts | 96° |
| 2026-05-05 22:29 | 42.54767 | 32.36649 | 37055 ft | 485 kts | 96° |
| 2026-05-05 22:29 | 42.53716 | 32.45672 | 37055 ft | 484 kts | 96° |
| 2026-05-05 22:30 | 42.52659 | 32.54685 | 37054 ft | 484 kts | 96° |
| 2026-05-05 22:30 | 42.51601 | 32.63641 | 37054 ft | 484 kts | 96° |
| 2026-05-05 22:31 | 42.50531 | 32.72645 | 37055 ft | 484 kts | 96° |
| 2026-05-05 22:31 | 42.49452 | 32.81653 | 37054 ft | 484 kts | 96° |
| 2026-05-05 22:32 | 42.48366 | 32.90652 | 37052 ft | 484 kts | 97° |
| 2026-05-05 22:32 | 42.47280 | 32.99591 | 37052 ft | 484 kts | 97° |
| 2026-05-05 22:33 | 42.46180 | 33.08587 | 37053 ft | 484 kts | 97° |
| 2026-05-05 22:33 | 42.45069 | 33.17594 | 37057 ft | 485 kts | 97° |
| 2026-05-05 22:34 | 42.43953 | 33.26577 | 37052 ft | 485 kts | 97° |
| 2026-05-05 22:34 | 42.42835 | 33.35527 | 37057 ft | 485 kts | 97° |
| 2026-05-05 22:35 | 42.41706 | 33.44523 | 37053 ft | 485 kts | 97° |
| 2026-05-05 22:35 | 42.40570 | 33.53521 | 37051 ft | 485 kts | 97° |
| 2026-05-05 22:36 | 42.39424 | 33.62502 | 37054 ft | 485 kts | 97° |
| 2026-05-05 22:36 | 42.38271 | 33.71488 | 37055 ft | 485 kts | 97° |
| 2026-05-05 22:37 | 42.37120 | 33.80414 | 37058 ft | 485 kts | 97° |
| 2026-05-05 22:37 | 42.35955 | 33.89392 | 37060 ft | 485 kts | 98° |
| 2026-05-05 22:38 | 42.34788 | 33.98385 | 37056 ft | 486 kts | 98° |
| 2026-05-05 22:38 | 42.33609 | 34.07377 | 37057 ft | 486 kts | 98° |
| 2026-05-05 22:39 | 42.32431 | 34.16306 | 37056 ft | 486 kts | 98° |
| 2026-05-05 22:39 | 42.31239 | 34.25297 | 37059 ft | 486 kts | 98° |
| 2026-05-05 22:40 | 42.30037 | 34.34299 | 37055 ft | 487 kts | 98° |
| 2026-05-05 22:40 | 42.28833 | 34.43295 | 37057 ft | 487 kts | 98° |
| 2026-05-05 22:41 | 42.27625 | 34.52230 | 37055 ft | 487 kts | 99° |
| 2026-05-05 22:41 | 42.26396 | 34.61232 | 37061 ft | 488 kts | 99° |
| 2026-05-05 22:42 | 42.25163 | 34.70228 | 37054 ft | 488 kts | 99° |
| 2026-05-05 22:42 | 42.23922 | 34.79234 | 37057 ft | 488 kts | 99° |
| 2026-05-05 22:43 | 42.22679 | 34.88167 | 37061 ft | 488 kts | 99° |
| 2026-05-05 22:43 | 42.21420 | 34.97176 | 37055 ft | 488 kts | 99° |
| 2026-05-05 22:44 | 42.20155 | 35.06173 | 37058 ft | 488 kts | 100° |
| 2026-05-05 22:44 | 42.18882 | 35.15170 | 37054 ft | 488 kts | 100° |
| 2026-05-05 22:45 | 42.17602 | 35.24163 | 37060 ft | 488 kts | 100° |
| 2026-05-05 22:45 | 42.16324 | 35.33089 | 37058 ft | 489 kts | 100° |
| 2026-05-05 22:46 | 42.15029 | 35.42083 | 37058 ft | 489 kts | 100° |
| 2026-05-05 22:46 | 42.13734 | 35.51068 | 37058 ft | 489 kts | 100° |
| 2026-05-05 22:47 | 42.12426 | 35.60057 | 37061 ft | 489 kts | 101° |
| 2026-05-05 22:47 | 42.11121 | 35.68977 | 37059 ft | 489 kts | 101° |
| 2026-05-05 22:48 | 42.09800 | 35.77963 | 37057 ft | 489 kts | 101° |
| 2026-05-05 22:48 | 42.08472 | 35.86944 | 37060 ft | 489 kts | 101° |
| 2026-05-05 22:49 | 42.07138 | 35.95921 | 37058 ft | 489 kts | 101° |
| 2026-05-05 22:49 | 42.05805 | 36.04838 | 37056 ft | 489 kts | 101° |
| 2026-05-05 22:50 | 42.04457 | 36.13803 | 37056 ft | 489 kts | 101° |
| 2026-05-05 22:50 | 42.03101 | 36.22770 | 37056 ft | 490 kts | 101° |
| 2026-05-05 22:51 | 42.01735 | 36.31757 | 37057 ft | 490 kts | 101° |
| 2026-05-05 22:51 | 42.00373 | 36.40667 | 37054 ft | 490 kts | 102° |
| 2026-05-05 22:52 | 41.98994 | 36.49639 | 37054 ft | 490 kts | 102° |
| 2026-05-05 22:52 | 41.97606 | 36.58617 | 37054 ft | 491 kts | 102° |
| 2026-05-05 22:53 | 41.96212 | 36.67592 | 37056 ft | 491 kts | 102° |
| 2026-05-05 22:53 | 41.94819 | 36.76505 | 37057 ft | 491 kts | 102° |
| 2026-05-05 22:54 | 41.93408 | 36.85483 | 37054 ft | 491 kts | 102° |
| 2026-05-05 22:54 | 41.91990 | 36.94462 | 37057 ft | 491 kts | 102° |
| 2026-05-05 22:55 | 41.90650 | 37.03456 | 37056 ft | 492 kts | 97° |
| 2026-05-05 22:55 | 41.90252 | 37.12560 | 37054 ft | 492 kts | 92° |
| 2026-05-05 22:56 | 41.90107 | 37.21762 | 37056 ft | 493 kts | 91° |
| 2026-05-05 22:56 | 41.89996 | 37.30965 | 37053 ft | 493 kts | 92° |
| 2026-05-05 22:57 | 41.89863 | 37.40169 | 37056 ft | 493 kts | 92° |
| 2026-05-05 22:57 | 41.89712 | 37.49316 | 37055 ft | 494 kts | 92° |
| 2026-05-05 22:58 | 41.89549 | 37.58531 | 37050 ft | 494 kts | 92° |
| 2026-05-05 22:58 | 41.89379 | 37.67747 | 37049 ft | 494 kts | 92° |
| 2026-05-05 22:59 | 41.89202 | 37.76975 | 37052 ft | 494 kts | 92° |
| 2026-05-05 22:59 | 41.89018 | 37.86135 | 37047 ft | 495 kts | 92° |
| 2026-05-05 23:00 | 41.88760 | 37.98431 | 37048 ft | 495 kts | 93° |
| 2026-05-05 23:00 | 41.88558 | 38.07666 | 37046 ft | 495 kts | 93° |
| 2026-05-05 23:01 | 41.88348 | 38.16893 | 37048 ft | 496 kts | 93° |
| 2026-05-05 23:01 | 41.88096 | 38.27649 | 37044 ft | 496 kts | 93° |
| 2026-05-05 23:02 | 41.87871 | 38.36911 | 37049 ft | 496 kts | 93° |
| 2026-05-05 23:02 | 41.87677 | 38.44597 | 37043 ft | 497 kts | 93° |
| 2026-05-05 23:03 | 41.87436 | 38.53863 | 37046 ft | 497 kts | 94° |
| 2026-05-05 23:03 | 41.87148 | 38.64634 | 37047 ft | 497 kts | 94° |
| 2026-05-05 23:04 | 41.86935 | 38.72344 | 37048 ft | 498 kts | 94° |
| 2026-05-05 23:04 | 41.86672 | 38.81625 | 37047 ft | 498 kts | 94° |
| 2026-05-05 23:05 | 41.86358 | 38.92417 | 37055 ft | 498 kts | 94° |
| 2026-05-05 23:05 | 41.86079 | 39.01695 | 37044 ft | 498 kts | 94° |
| 2026-05-05 23:06 | 41.85842 | 39.09425 | 37045 ft | 499 kts | 94° |
| 2026-05-05 23:06 | 41.85548 | 39.18715 | 37042 ft | 499 kts | 94° |
| 2026-05-05 23:07 | 41.85248 | 39.28013 | 37045 ft | 499 kts | 94° |
| 2026-05-05 23:07 | 41.84939 | 39.37316 | 37042 ft | 499 kts | 94° |
| 2026-05-05 23:08 | 41.84624 | 39.46609 | 37040 ft | 499 kts | 94° |
| 2026-05-05 23:08 | 41.84307 | 39.55849 | 37039 ft | 499 kts | 94° |
| 2026-05-05 23:09 | 41.83978 | 39.65148 | 37038 ft | 499 kts | 94° |
| 2026-05-05 23:09 | 41.83638 | 39.74448 | 37036 ft | 499 kts | 95° |
| 2026-05-05 23:10 | 41.83291 | 39.83751 | 37035 ft | 500 kts | 95° |
| 2026-05-05 23:10 | 41.82940 | 39.92996 | 37037 ft | 500 kts | 95° |
| 2026-05-05 23:11 | 41.82580 | 40.02304 | 37035 ft | 500 kts | 95° |
| 2026-05-05 23:11 | 41.82212 | 40.11622 | 37040 ft | 500 kts | 95° |
| 2026-05-05 23:12 | 41.81844 | 40.20870 | 37038 ft | 500 kts | 95° |
| 2026-05-05 23:12 | 41.81457 | 40.30181 | 37036 ft | 501 kts | 95° |
| 2026-05-05 23:13 | 41.81063 | 40.39497 | 37036 ft | 501 kts | 95° |
| 2026-05-05 23:13 | 41.80662 | 40.48819 | 37037 ft | 501 kts | 95° |
| 2026-05-05 23:14 | 41.80254 | 40.58147 | 37035 ft | 501 kts | 95° |
| 2026-05-05 23:14 | 41.79840 | 40.67471 | 37034 ft | 501 kts | 95° |
| 2026-05-05 23:15 | 41.79401 | 40.76733 | 37037 ft | 501 kts | 96° |
| 2026-05-05 23:15 | 41.78934 | 40.86047 | 37029 ft | 501 kts | 96° |
| 2026-05-05 23:16 | 41.78462 | 40.95367 | 37033 ft | 502 kts | 96° |
| 2026-05-05 23:16 | 41.77990 | 41.04633 | 37033 ft | 502 kts | 96° |
| 2026-05-05 23:17 | 41.77509 | 41.13962 | 37033 ft | 502 kts | 96° |
| 2026-05-05 23:17 | 41.77021 | 41.23289 | 37028 ft | 502 kts | 96° |
| 2026-05-05 23:18 | 41.76524 | 41.32617 | 37026 ft | 502 kts | 96° |
| 2026-05-05 23:18 | 41.76024 | 41.41880 | 37025 ft | 502 kts | 97° |
| 2026-05-05 23:19 | 41.75511 | 41.51216 | 37022 ft | 502 kts | 97° |
| 2026-05-05 23:19 | 41.74992 | 41.60540 | 37024 ft | 503 kts | 97° |
| 2026-05-05 23:20 | 41.74464 | 41.69877 | 37022 ft | 503 kts | 97° |
| 2026-05-05 23:20 | 41.73933 | 41.79147 | 37020 ft | 503 kts | 97° |
| 2026-05-05 23:21 | 41.73390 | 41.88484 | 37024 ft | 503 kts | 97° |
| 2026-05-05 23:21 | 41.72840 | 41.97807 | 37023 ft | 503 kts | 97° |
| 2026-05-05 23:22 | 41.72283 | 42.07133 | 37015 ft | 503 kts | 97° |
| 2026-05-05 23:22 | 41.71726 | 42.16402 | 37009 ft | 503 kts | 97° |
| 2026-05-05 23:23 | 41.71151 | 42.25720 | 37020 ft | 503 kts | 98° |
| 2026-05-05 23:23 | 41.70567 | 42.35047 | 37012 ft | 503 kts | 98° |
| 2026-05-05 23:24 | 41.69977 | 42.44363 | 36996 ft | 503 kts | 98° |
| 2026-05-05 23:24 | 41.69384 | 42.53619 | 36995 ft | 502 kts | 98° |
| 2026-05-05 23:25 | 41.68780 | 42.62934 | 36996 ft | 502 kts | 98° |
| 2026-05-05 23:25 | 41.68170 | 42.72244 | 36990 ft | 502 kts | 98° |
| 2026-05-05 23:26 | 41.67551 | 42.81552 | 36981 ft | 502 kts | 98° |
| 2026-05-05 23:26 | 41.66852 | 42.90778 | 36986 ft | 501 kts | 102° |
| 2026-05-05 23:27 | 41.65615 | 42.99925 | 36979 ft | 499 kts | 105° |
| 2026-05-05 23:27 | 41.64267 | 43.09032 | 36981 ft | 500 kts | 104° |
| 2026-05-05 23:28 | 41.62987 | 43.18168 | 36983 ft | 500 kts | 104° |
| 2026-05-05 23:28 | 41.61758 | 43.27271 | 36977 ft | 501 kts | 104° |
| 2026-05-05 23:29 | 41.60529 | 43.36431 | 36977 ft | 501 kts | 104° |
| 2026-05-05 23:29 | 41.59288 | 43.45593 | 36979 ft | 502 kts | 104° |
| 2026-05-05 23:30 | 41.58033 | 43.54763 | 36979 ft | 502 kts | 104° |
| 2026-05-05 23:30 | 41.56779 | 43.63867 | 36982 ft | 502 kts | 104° |
| 2026-05-05 23:31 | 41.55507 | 43.73045 | 36979 ft | 502 kts | 104° |
| 2026-05-05 23:31 | 41.54230 | 43.82207 | 36987 ft | 503 kts | 104° |
| 2026-05-05 23:32 | 41.52944 | 43.91386 | 36984 ft | 503 kts | 104° |
| 2026-05-05 23:32 | 41.51658 | 44.00504 | 36997 ft | 503 kts | 104° |
| 2026-05-05 23:33 | 41.50357 | 44.09674 | 36989 ft | 504 kts | 105° |
| 2026-05-05 23:33 | 41.49048 | 44.18845 | 36990 ft | 504 kts | 105° |
| 2026-05-05 23:34 | 41.47729 | 44.28035 | 36994 ft | 504 kts | 105° |
| 2026-05-05 23:34 | 41.46404 | 44.37209 | 36994 ft | 504 kts | 105° |
| 2026-05-05 23:35 | 41.45080 | 44.46321 | 36994 ft | 504 kts | 105° |
| 2026-05-05 23:35 | 41.43738 | 44.55503 | 36994 ft | 505 kts | 105° |
| 2026-05-05 23:36 | 41.43229 | 44.58975 | 36995 ft | 505 kts | 105° |
| 2026-05-05 23:36 | 41.41901 | 44.67985 | 36991 ft | 505 kts | 105° |
| 2026-05-05 23:37 | 41.40550 | 44.77104 | 36989 ft | 505 kts | 106° |
| 2026-05-05 23:37 | 41.39181 | 44.86288 | 36999 ft | 506 kts | 106° |
| 2026-05-05 23:38 | 41.37806 | 44.95466 | 36985 ft | 506 kts | 106° |
| 2026-05-05 23:38 | 41.36420 | 45.04662 | 36979 ft | 506 kts | 106° |
| 2026-05-05 23:39 | 41.34535 | 45.13553 | 36974 ft | 502 kts | 113° |
| 2026-05-05 23:39 | 41.32313 | 45.22351 | 36970 ft | 502 kts | 114° |
| 2026-05-05 23:40 | 41.30036 | 45.31132 | 36967 ft | 502 kts | 114° |
| 2026-05-05 23:40 | 41.27759 | 45.39899 | 36966 ft | 502 kts | 114° |
| 2026-05-05 23:41 | 41.25501 | 45.48603 | 37316 ft | 500 kts | 114° |
| 2026-05-05 23:41 | 41.24367 | 45.52972 | 37568 ft | 499 kts | 114° |
| 2026-05-05 23:41 | 41.23233 | 45.57333 | 37756 ft | 499 kts | 114° |
| 2026-05-05 23:42 | 41.22098 | 45.61689 | 37932 ft | 500 kts | 114° |
| 2026-05-05 23:42 | 41.20958 | 45.66056 | 38087 ft | 500 kts | 114° |
| 2026-05-05 23:42 | 41.19820 | 45.70414 | 38246 ft | 500 kts | 114° |
| 2026-05-05 23:42 | 41.18673 | 45.74779 | 38417 ft | 501 kts | 114° |
| 2026-05-05 23:43 | 41.17536 | 45.79086 | 38552 ft | 501 kts | 114° |
| 2026-05-05 23:43 | 41.16383 | 45.83442 | 38700 ft | 501 kts | 115° |
| 2026-05-05 23:43 | 41.15228 | 45.87801 | 38812 ft | 501 kts | 115° |
| 2026-05-05 23:43 | 41.14072 | 45.92159 | 38920 ft | 501 kts | 115° |
| 2026-05-05 23:44 | 41.11740 | 46.00926 | 38968 ft | 506 kts | 115° |
| 2026-05-05 23:44 | 41.09393 | 46.09729 | 38968 ft | 506 kts | 115° |
| 2026-05-05 23:45 | 41.07057 | 46.18472 | 38964 ft | 506 kts | 115° |
| 2026-05-05 23:45 | 41.04700 | 46.27256 | 38967 ft | 506 kts | 115° |
| 2026-05-05 23:46 | 41.02350 | 46.36034 | 38958 ft | 506 kts | 115° |
| 2026-05-05 23:46 | 41.00001 | 46.44829 | 38958 ft | 506 kts | 115° |
| 2026-05-05 23:47 | 40.97645 | 46.53617 | 38959 ft | 507 kts | 115° |
| 2026-05-05 23:47 | 40.95295 | 46.62344 | 38962 ft | 507 kts | 115° |
| 2026-05-05 23:48 | 40.92920 | 46.71131 | 38963 ft | 508 kts | 115° |
| 2026-05-05 23:48 | 40.91049 | 46.80185 | 38965 ft | 519 kts | 102° |
| 2026-05-05 23:49 | 40.91329 | 46.89813 | 38977 ft | 533 kts | 83° |
| 2026-05-05 23:49 | 40.92968 | 46.99332 | 38974 ft | 537 kts | 80° |
| 2026-05-05 23:50 | 40.94817 | 47.08908 | 38977 ft | 538 kts | 79° |
| 2026-05-05 23:50 | 40.96639 | 47.18503 | 38970 ft | 538 kts | 80° |
| 2026-05-05 23:51 | 40.98414 | 47.28122 | 38982 ft | 538 kts | 80° |
| 2026-05-05 23:51 | 41.00150 | 47.37670 | 38977 ft | 538 kts | 81° |
| 2026-05-05 23:52 | 41.01893 | 47.47316 | 38977 ft | 538 kts | 81° |
| 2026-05-05 23:52 | 41.03628 | 47.56953 | 38965 ft | 538 kts | 81° |
| 2026-05-05 23:53 | 41.05355 | 47.66589 | 38957 ft | 538 kts | 81° |
| 2026-05-05 23:53 | 41.07060 | 47.76155 | 38953 ft | 537 kts | 81° |
| 2026-05-05 23:54 | 41.08771 | 47.85797 | 38949 ft | 537 kts | 81° |
| 2026-05-05 23:54 | 41.10666 | 47.95388 | 38954 ft | 541 kts | 72° |
| 2026-05-05 23:55 | 41.14291 | 48.04168 | 38955 ft | 546 kts | 57° |
| 2026-05-05 23:55 | 41.18700 | 48.12330 | 38959 ft | 548 kts | 55° |
| 2026-05-05 23:56 | 41.23247 | 48.20464 | 38964 ft | 549 kts | 55° |
| 2026-05-05 23:56 | 41.27776 | 48.28629 | 38984 ft | 549 kts | 56° |
| 2026-05-05 23:57 | 41.32285 | 48.36848 | 38991 ft | 550 kts | 56° |
| 2026-05-05 23:57 | 41.36772 | 48.45075 | 38995 ft | 549 kts | 56° |
| 2026-05-05 23:58 | 41.41228 | 48.53268 | 38996 ft | 549 kts | 56° |
| 2026-05-05 23:58 | 41.45733 | 48.61483 | 39001 ft | 549 kts | 55° |
| 2026-05-05 23:59 | 41.50308 | 48.69637 | 38999 ft | 549 kts | 54° |
| 2026-05-05 23:59 | 41.54852 | 48.77833 | 39001 ft | 549 kts | 57° |
| 2026-05-06 00:00 | 41.59080 | 48.86219 | 38997 ft | 548 kts | 59° |
| 2026-05-06 00:00 | 41.63262 | 48.94735 | 38998 ft | 548 kts | 58° |
| 2026-05-06 00:01 | 41.67475 | 49.03231 | 38998 ft | 548 kts | 58° |
| 2026-05-06 00:01 | 41.71711 | 49.11716 | 38999 ft | 548 kts | 58° |
| 2026-05-06 00:02 | 41.75917 | 49.20142 | 38997 ft | 548 kts | 58° |
| 2026-05-06 00:02 | 41.80148 | 49.28643 | 38995 ft | 549 kts | 58° |
| 2026-05-06 00:03 | 41.84477 | 49.37072 | 39000 ft | 550 kts | 55° |
| 2026-05-06 00:03 | 41.89052 | 49.45319 | 38997 ft | 551 kts | 54° |
| 2026-05-06 00:04 | 41.93596 | 49.53504 | 39000 ft | 551 kts | 55° |
| 2026-05-06 00:04 | 41.98138 | 49.61814 | 39001 ft | 552 kts | 55° |
| 2026-05-06 00:05 | 42.04914 | 49.74340 | 38998 ft | 552 kts | 56° |
| 2026-05-06 00:06 | 42.09422 | 49.82709 | 39001 ft | 553 kts | 56° |
| 2026-05-06 00:06 | 42.13901 | 49.91041 | 38998 ft | 553 kts | 56° |
| 2026-05-06 00:07 | 42.18409 | 49.99449 | 39000 ft | 554 kts | 56° |
| 2026-05-06 00:07 | 42.22914 | 50.07875 | 38996 ft | 554 kts | 56° |
| 2026-05-06 00:08 | 42.27412 | 50.16310 | 38995 ft | 554 kts | 56° |
| 2026-05-06 00:08 | 42.31882 | 50.24718 | 38995 ft | 555 kts | 56° |
| 2026-05-06 00:09 | 42.36376 | 50.33193 | 38991 ft | 555 kts | 56° |
| 2026-05-06 00:09 | 42.40866 | 50.41685 | 38992 ft | 555 kts | 56° |
| 2026-05-06 00:10 | 42.45368 | 50.50176 | 38997 ft | 555 kts | 54° |
| 2026-05-06 00:10 | 42.50055 | 50.58397 | 38987 ft | 555 kts | 52° |
| 2026-05-06 00:11 | 42.54845 | 50.66620 | 38994 ft | 555 kts | 52° |
| 2026-05-06 00:11 | 42.59594 | 50.74876 | 38988 ft | 555 kts | 53° |
| 2026-05-06 00:12 | 42.64311 | 50.83169 | 38988 ft | 555 kts | 53° |
| 2026-05-06 00:12 | 42.69010 | 50.91474 | 38980 ft | 554 kts | 53° |
| 2026-05-06 00:13 | 42.73667 | 50.99729 | 38978 ft | 553 kts | 53° |
| 2026-05-06 00:13 | 42.78343 | 51.08034 | 38971 ft | 553 kts | 53° |
| 2026-05-06 00:14 | 42.83011 | 51.16347 | 38983 ft | 552 kts | 53° |
| 2026-05-06 00:14 | 42.87671 | 51.24671 | 38977 ft | 552 kts | 53° |
| 2026-05-06 00:15 | 42.92295 | 51.32951 | 38967 ft | 552 kts | 53° |
| 2026-05-06 00:15 | 42.96940 | 51.41293 | 38964 ft | 552 kts | 53° |
| 2026-05-06 00:16 | 43.01583 | 51.49655 | 38959 ft | 552 kts | 54° |
| 2026-05-06 00:16 | 43.06214 | 51.58021 | 38958 ft | 552 kts | 54° |
| 2026-05-06 00:17 | 43.10812 | 51.66350 | 38958 ft | 552 kts | 54° |
| 2026-05-06 00:17 | 43.15440 | 51.74756 | 38957 ft | 553 kts | 54° |
| 2026-05-06 00:18 | 43.20062 | 51.83175 | 38954 ft | 553 kts | 54° |
| 2026-05-06 00:18 | 43.24688 | 51.91626 | 38950 ft | 554 kts | 54° |
| 2026-05-06 00:19 | 43.29277 | 52.00033 | 38950 ft | 554 kts | 54° |
| 2026-05-06 00:19 | 43.33892 | 52.08512 | 38953 ft | 555 kts | 54° |
| 2026-05-06 00:20 | 43.38505 | 52.17012 | 38948 ft | 555 kts | 54° |
| 2026-05-06 00:20 | 43.43117 | 52.25534 | 38947 ft | 555 kts | 54° |
| 2026-05-06 00:21 | 43.47724 | 52.34072 | 38944 ft | 556 kts | 54° |
| 2026-05-06 00:21 | 43.52300 | 52.42577 | 38945 ft | 556 kts | 54° |
| 2026-05-06 00:22 | 43.56895 | 52.51144 | 38942 ft | 556 kts | 54° |
| 2026-05-06 00:22 | 43.61494 | 52.59741 | 38944 ft | 557 kts | 54° |
| 2026-05-06 00:23 | 43.66086 | 52.68350 | 38938 ft | 557 kts | 54° |
| 2026-05-06 00:23 | 43.70637 | 52.76928 | 38940 ft | 557 kts | 54° |
| 2026-05-06 00:24 | 43.75194 | 52.85564 | 38942 ft | 556 kts | 54° |
| 2026-05-06 00:24 | 43.79751 | 52.94223 | 38939 ft | 556 kts | 54° |
| 2026-05-06 00:25 | 43.84294 | 53.02877 | 38936 ft | 555 kts | 54° |
| 2026-05-06 00:25 | 43.88794 | 53.11472 | 38932 ft | 555 kts | 54° |
| 2026-05-06 00:26 | 43.93315 | 53.20127 | 38935 ft | 554 kts | 54° |
| 2026-05-06 00:26 | 43.97823 | 53.28800 | 38939 ft | 554 kts | 54° |
| 2026-05-06 00:27 | 44.02327 | 53.37490 | 38936 ft | 554 kts | 54° |
| 2026-05-06 00:27 | 44.06789 | 53.46121 | 38932 ft | 554 kts | 54° |
| 2026-05-06 00:28 | 44.11280 | 53.54832 | 38934 ft | 554 kts | 54° |
| 2026-05-06 00:28 | 44.15759 | 53.63548 | 38934 ft | 554 kts | 54° |
| 2026-05-06 00:29 | 44.20240 | 53.72291 | 38934 ft | 554 kts | 55° |
| 2026-05-06 00:29 | 44.24709 | 53.81039 | 38934 ft | 554 kts | 55° |
| 2026-05-06 00:30 | 44.29145 | 53.89748 | 38930 ft | 554 kts | 55° |
| 2026-05-06 00:30 | 44.33597 | 53.98514 | 38931 ft | 554 kts | 55° |
| 2026-05-06 00:31 | 44.38047 | 54.07303 | 38931 ft | 553 kts | 55° |
| 2026-05-06 00:31 | 44.42483 | 54.16090 | 38929 ft | 553 kts | 55° |
| 2026-05-06 00:32 | 44.46886 | 54.24840 | 38929 ft | 553 kts | 55° |
| 2026-05-06 00:32 | 44.51307 | 54.33652 | 38926 ft | 553 kts | 55° |
| 2026-05-06 00:33 | 44.55724 | 54.42483 | 38920 ft | 553 kts | 55° |
| 2026-05-06 00:33 | 44.60132 | 54.51323 | 38920 ft | 553 kts | 55° |
| 2026-05-06 00:34 | 44.64506 | 54.60103 | 38920 ft | 552 kts | 54° |
| 2026-05-06 00:34 | 44.69686 | 54.68008 | 38917 ft | 550 kts | 42° |
| 2026-05-06 00:35 | 44.75298 | 54.75312 | 38920 ft | 550 kts | 40° |
| 2026-05-06 00:35 | 44.80965 | 54.82521 | 38912 ft | 549 kts | 40° |
| 2026-05-06 00:36 | 44.86582 | 54.89698 | 38923 ft | 549 kts | 41° |
| 2026-05-06 00:36 | 44.92221 | 54.96959 | 38909 ft | 548 kts | 41° |
| 2026-05-06 00:37 | 44.97840 | 55.04230 | 38908 ft | 548 kts | 41° |
| 2026-05-06 00:37 | 45.03453 | 55.11515 | 38918 ft | 547 kts | 41° |
| 2026-05-06 00:38 | 45.08447 | 55.19583 | 38916 ft | 547 kts | 59° |
| 2026-05-06 00:38 | 45.11688 | 55.29215 | 38912 ft | 546 kts | 69° |
| 2026-05-06 00:39 | 45.14451 | 55.39228 | 38911 ft | 546 kts | 71° |
| 2026-05-06 00:39 | 45.17141 | 55.49296 | 38907 ft | 547 kts | 71° |
| 2026-05-06 00:40 | 45.19855 | 55.59373 | 38906 ft | 547 kts | 70° |
| 2026-05-06 00:40 | 45.22569 | 55.69388 | 38907 ft | 548 kts | 70° |
| 2026-05-06 00:41 | 45.25299 | 55.79474 | 38906 ft | 548 kts | 70° |
| 2026-05-06 00:41 | 45.28023 | 55.89587 | 38907 ft | 548 kts | 70° |
| 2026-05-06 00:42 | 45.30737 | 55.99708 | 38908 ft | 548 kts | 71° |
| 2026-05-06 00:42 | 45.33423 | 56.09771 | 38902 ft | 549 kts | 71° |
| 2026-05-06 00:43 | 45.36122 | 56.19925 | 38899 ft | 549 kts | 71° |
| 2026-05-06 00:43 | 45.38818 | 56.30110 | 38904 ft | 550 kts | 71° |
| 2026-05-06 00:44 | 45.41502 | 56.40297 | 38903 ft | 550 kts | 71° |
| 2026-05-06 00:44 | 45.44166 | 56.50448 | 38902 ft | 551 kts | 71° |
| 2026-05-06 00:45 | 45.46839 | 56.60677 | 38899 ft | 551 kts | 71° |
| 2026-05-06 00:45 | 45.49504 | 56.70926 | 38897 ft | 552 kts | 71° |
| 2026-05-06 00:46 | 45.52164 | 56.81197 | 38893 ft | 552 kts | 71° |
| 2026-05-06 00:46 | 45.54817 | 56.91488 | 38894 ft | 553 kts | 71° |
| 2026-05-06 00:47 | 45.57445 | 57.01723 | 38894 ft | 553 kts | 71° |
| 2026-05-06 00:47 | 45.60083 | 57.12047 | 38893 ft | 554 kts | 71° |
| 2026-05-06 00:48 | 45.62714 | 57.22388 | 38891 ft | 554 kts | 71° |
| 2026-05-06 00:48 | 45.65318 | 57.32670 | 38887 ft | 554 kts | 71° |
| 2026-05-06 00:49 | 45.67929 | 57.43026 | 38883 ft | 554 kts | 71° |
| 2026-05-06 00:49 | 45.70535 | 57.53408 | 38881 ft | 554 kts | 71° |
| 2026-05-06 00:50 | 45.73128 | 57.63788 | 38883 ft | 554 kts | 71° |
| 2026-05-06 00:50 | 45.75715 | 57.74186 | 38881 ft | 554 kts | 71° |
| 2026-05-06 00:51 | 45.78274 | 57.84524 | 38882 ft | 555 kts | 71° |
| 2026-05-06 00:51 | 45.80843 | 57.94953 | 38879 ft | 554 kts | 71° |
| 2026-05-06 00:52 | 45.83400 | 58.05375 | 38878 ft | 554 kts | 71° |
| 2026-05-06 00:52 | 45.85948 | 58.15810 | 38880 ft | 554 kts | 71° |
| 2026-05-06 00:53 | 45.88465 | 58.26166 | 38877 ft | 553 kts | 71° |
| 2026-05-06 00:53 | 45.90989 | 58.36602 | 38876 ft | 554 kts | 71° |
| 2026-05-06 00:54 | 45.93507 | 58.47059 | 38878 ft | 554 kts | 71° |
| 2026-05-06 00:54 | 45.96012 | 58.57513 | 38879 ft | 554 kts | 71° |
| 2026-05-06 00:55 | 45.98493 | 58.67915 | 38877 ft | 554 kts | 71° |
| 2026-05-06 00:55 | 46.00978 | 58.78385 | 38878 ft | 553 kts | 71° |
| 2026-05-06 00:56 | 46.03455 | 58.88867 | 38878 ft | 553 kts | 71° |
| 2026-05-06 00:56 | 46.05918 | 58.99344 | 38882 ft | 552 kts | 71° |
| 2026-05-06 00:57 | 46.08354 | 59.09753 | 38886 ft | 552 kts | 71° |
| 2026-05-06 00:57 | 46.10796 | 59.20235 | 38886 ft | 551 kts | 71° |
| 2026-05-06 00:58 | 46.13223 | 59.30708 | 38889 ft | 551 kts | 71° |
| 2026-05-06 00:58 | 46.15640 | 59.41186 | 38892 ft | 550 kts | 71° |
| 2026-05-06 00:59 | 46.18046 | 59.51666 | 38897 ft | 550 kts | 71° |
| 2026-05-06 00:59 | 46.20421 | 59.62061 | 38902 ft | 550 kts | 71° |
| 2026-05-06 01:00 | 46.22808 | 59.72559 | 38905 ft | 549 kts | 71° |
| 2026-05-06 01:00 | 46.25175 | 59.83046 | 38907 ft | 549 kts | 71° |
| 2026-05-06 01:01 | 46.27518 | 59.93547 | 38914 ft | 549 kts | 71° |
| 2026-05-06 01:01 | 46.29834 | 60.03978 | 38921 ft | 549 kts | 71° |
| 2026-05-06 01:02 | 46.32162 | 60.14498 | 38925 ft | 549 kts | 71° |
| 2026-05-06 01:02 | 46.34477 | 60.25004 | 38926 ft | 549 kts | 71° |
| 2026-05-06 01:03 | 46.36787 | 60.35538 | 38928 ft | 549 kts | 71° |
| 2026-05-06 01:03 | 46.39069 | 60.46002 | 38931 ft | 548 kts | 71° |
| 2026-05-06 01:04 | 46.41354 | 60.56528 | 38939 ft | 548 kts | 71° |
| 2026-05-06 01:04 | 46.43629 | 60.67067 | 38934 ft | 547 kts | 71° |
| 2026-05-06 01:05 | 46.45894 | 60.77609 | 38938 ft | 547 kts | 71° |
| 2026-05-06 01:05 | 46.48131 | 60.88072 | 38942 ft | 546 kts | 71° |
| 2026-05-06 01:06 | 46.50368 | 60.98593 | 38939 ft | 545 kts | 71° |
| 2026-05-06 01:06 | 46.52591 | 61.09098 | 38943 ft | 544 kts | 71° |
| 2026-05-06 01:07 | 46.54817 | 61.19676 | 38947 ft | 543 kts | 71° |
| 2026-05-06 01:07 | 46.57015 | 61.30169 | 38944 ft | 543 kts | 71° |
| 2026-05-06 01:08 | 46.59202 | 61.40669 | 38950 ft | 543 kts | 71° |
| 2026-05-06 01:08 | 46.61377 | 61.51166 | 38952 ft | 542 kts | 72° |
| 2026-05-06 01:09 | 46.63530 | 61.61611 | 38955 ft | 542 kts | 72° |
| 2026-05-06 01:09 | 46.65684 | 61.72115 | 38959 ft | 541 kts | 72° |
| 2026-05-06 01:10 | 46.67825 | 61.82611 | 38964 ft | 541 kts | 72° |
| 2026-05-06 01:10 | 46.69959 | 61.93125 | 38964 ft | 540 kts | 72° |
| 2026-05-06 01:11 | 46.72063 | 62.03547 | 38965 ft | 540 kts | 72° |
| 2026-05-06 01:11 | 46.74167 | 62.14028 | 38966 ft | 538 kts | 72° |
| 2026-05-06 01:12 | 46.76260 | 62.24508 | 38970 ft | 537 kts | 72° |
| 2026-05-06 01:12 | 46.78335 | 62.34956 | 38969 ft | 536 kts | 72° |
| 2026-05-06 01:13 | 46.80398 | 62.45395 | 38968 ft | 535 kts | 72° |
| 2026-05-06 01:13 | 46.82432 | 62.55745 | 38965 ft | 533 kts | 72° |
| 2026-05-06 01:14 | 46.85479 | 62.71345 | 38971 ft | 531 kts | 72° |
| 2026-05-06 01:14 | 46.87491 | 62.81720 | 38971 ft | 530 kts | 72° |
| 2026-05-06 01:15 | 46.89479 | 62.92023 | 38976 ft | 530 kts | 72° |
| 2026-05-06 01:15 | 46.91469 | 63.02390 | 38975 ft | 529 kts | 72° |
| 2026-05-06 01:16 | 46.93444 | 63.12740 | 38973 ft | 528 kts | 72° |
| 2026-05-06 01:16 | 46.95410 | 63.23097 | 38977 ft | 528 kts | 73° |
| 2026-05-06 01:17 | 46.97364 | 63.33449 | 38978 ft | 527 kts | 73° |
| 2026-05-06 01:17 | 46.99295 | 63.43733 | 38981 ft | 527 kts | 73° |
| 2026-05-06 01:18 | 47.01227 | 63.54083 | 38981 ft | 527 kts | 73° |
| 2026-05-06 01:18 | 47.03149 | 63.64432 | 38980 ft | 526 kts | 73° |
| 2026-05-06 01:19 | 47.05059 | 63.74776 | 38980 ft | 525 kts | 73° |
| 2026-05-06 01:19 | 47.06943 | 63.85038 | 38981 ft | 524 kts | 73° |
| 2026-05-06 01:20 | 47.08827 | 63.95356 | 38986 ft | 523 kts | 73° |
| 2026-05-06 01:20 | 47.10698 | 64.05662 | 38986 ft | 522 kts | 73° |
| 2026-05-06 01:21 | 47.12557 | 64.15954 | 38988 ft | 521 kts | 73° |
| 2026-05-06 01:21 | 47.14387 | 64.26151 | 38993 ft | 519 kts | 73° |
| 2026-05-06 01:22 | 47.16218 | 64.36407 | 38994 ft | 518 kts | 73° |
| 2026-05-06 01:22 | 47.18035 | 64.46644 | 38996 ft | 517 kts | 74° |
| 2026-05-06 01:23 | 47.19840 | 64.56857 | 38996 ft | 516 kts | 74° |
| 2026-05-06 01:23 | 47.21630 | 64.66999 | 38998 ft | 516 kts | 74° |
| 2026-05-06 01:24 | 47.23420 | 64.77213 | 38996 ft | 515 kts | 74° |
| 2026-05-06 01:24 | 47.25197 | 64.87411 | 39003 ft | 514 kts | 74° |
| 2026-05-06 01:25 | 47.26965 | 64.97611 | 39002 ft | 514 kts | 74° |
| 2026-05-06 01:25 | 47.28728 | 65.07824 | 39007 ft | 515 kts | 75° |
| 2026-05-06 01:26 | 47.30466 | 65.17989 | 39013 ft | 515 kts | 75° |
| 2026-05-06 01:26 | 47.32205 | 65.28237 | 39008 ft | 516 kts | 75° |
| 2026-05-06 01:27 | 47.33940 | 65.38508 | 39015 ft | 516 kts | 75° |
| 2026-05-06 01:27 | 47.35669 | 65.48795 | 39022 ft | 517 kts | 75° |
| 2026-05-06 01:28 | 47.37378 | 65.59025 | 39020 ft | 518 kts | 75° |
| 2026-05-06 01:28 | 47.39094 | 65.69358 | 39027 ft | 519 kts | 75° |
| 2026-05-06 01:29 | 47.40803 | 65.79717 | 39035 ft | 519 kts | 75° |
| 2026-05-06 01:29 | 47.42519 | 65.90075 | 39035 ft | 520 kts | 75° |
| 2026-05-06 01:30 | 47.44280 | 66.00349 | 39038 ft | 520 kts | 75° |
| 2026-05-06 01:30 | 47.46055 | 66.10700 | 39041 ft | 520 kts | 75° |
| 2026-05-06 01:31 | 47.47813 | 66.21073 | 39048 ft | 520 kts | 75° |
| 2026-05-06 01:31 | 47.49543 | 66.31378 | 39050 ft | 520 kts | 75° |
| 2026-05-06 01:32 | 47.51273 | 66.41753 | 39056 ft | 520 kts | 75° |
| 2026-05-06 01:32 | 47.52994 | 66.52133 | 39057 ft | 519 kts | 75° |
| 2026-05-06 01:33 | 47.54705 | 66.62511 | 39059 ft | 519 kts | 75° |
| 2026-05-06 01:33 | 47.56394 | 66.72820 | 39062 ft | 519 kts | 75° |
| 2026-05-06 01:34 | 47.58047 | 66.83209 | 39065 ft | 518 kts | 76° |
| 2026-05-06 01:34 | 47.59655 | 66.93613 | 39068 ft | 518 kts | 76° |
| 2026-05-06 01:35 | 47.61258 | 67.04032 | 39067 ft | 518 kts | 76° |
| 2026-05-06 01:35 | 47.62858 | 67.14439 | 39065 ft | 518 kts | 76° |
| 2026-05-06 01:36 | 47.64439 | 67.24772 | 39067 ft | 518 kts | 76° |
| 2026-05-06 01:36 | 47.66021 | 67.35179 | 39061 ft | 517 kts | 76° |
| 2026-05-06 01:37 | 47.67594 | 67.45602 | 39052 ft | 517 kts | 76° |
| 2026-05-06 01:37 | 47.69157 | 67.56018 | 39050 ft | 517 kts | 76° |
| 2026-05-06 01:38 | 47.70697 | 67.66357 | 39048 ft | 517 kts | 76° |
| 2026-05-06 01:38 | 47.72240 | 67.76779 | 39049 ft | 517 kts | 76° |
| 2026-05-06 01:39 | 47.73461 | 67.87307 | 39048 ft | 518 kts | 81° |
| 2026-05-06 01:39 | 47.74223 | 67.96121 | 39055 ft | 518 kts | 82° |
| 2026-05-06 01:40 | 47.75305 | 68.08454 | 39060 ft | 518 kts | 81° |
| 2026-05-06 01:40 | 47.76293 | 68.19038 | 39069 ft | 518 kts | 81° |
| 2026-05-06 01:41 | 47.77127 | 68.27849 | 39074 ft | 518 kts | 81° |
| 2026-05-06 01:41 | 47.78125 | 68.38445 | 39077 ft | 518 kts | 81° |
| 2026-05-06 01:42 | 47.79269 | 68.50762 | 39078 ft | 518 kts | 81° |
| 2026-05-06 01:42 | 47.80240 | 68.61361 | 39081 ft | 517 kts | 81° |
| 2026-05-06 01:43 | 47.81040 | 68.70172 | 39080 ft | 517 kts | 81° |
| 2026-05-06 01:43 | 47.81908 | 68.80794 | 39080 ft | 517 kts | 86° |
| 2026-05-06 01:44 | 47.81902 | 68.93232 | 39087 ft | 517 kts | 91° |
| 2026-05-06 01:44 | 47.81740 | 69.02186 | 39086 ft | 517 kts | 91° |
| 2026-05-06 01:45 | 47.81517 | 69.12796 | 39087 ft | 517 kts | 91° |
| 2026-05-06 01:45 | 47.81294 | 69.23482 | 39087 ft | 516 kts | 91° |
| 2026-05-06 01:46 | 47.81035 | 69.35885 | 39092 ft | 516 kts | 91° |
| 2026-05-06 01:46 | 47.80842 | 69.44827 | 39093 ft | 516 kts | 91° |
| 2026-05-06 01:47 | 47.80605 | 69.55417 | 39095 ft | 516 kts | 91° |
| 2026-05-06 01:47 | 47.80356 | 69.66078 | 39096 ft | 515 kts | 91° |
| 2026-05-06 01:48 | 47.80096 | 69.76727 | 39101 ft | 515 kts | 91° |
| 2026-05-06 01:48 | 47.79827 | 69.87372 | 39094 ft | 515 kts | 91° |
| 2026-05-06 01:49 | 47.79551 | 69.97943 | 39098 ft | 515 kts | 91° |
| 2026-05-06 01:49 | 47.79256 | 70.08799 | 39102 ft | 515 kts | 91° |
| 2026-05-06 01:50 | 47.78960 | 70.19366 | 39105 ft | 515 kts | 92° |
| 2026-05-06 01:50 | 47.78651 | 70.29998 | 39101 ft | 515 kts | 92° |
| 2026-05-06 01:51 | 47.78333 | 70.40626 | 39109 ft | 515 kts | 92° |
| 2026-05-06 01:51 | 47.78008 | 70.51193 | 39110 ft | 515 kts | 92° |
| 2026-05-06 01:52 | 47.77671 | 70.61809 | 39116 ft | 514 kts | 92° |
| 2026-05-06 01:52 | 47.77325 | 70.72429 | 39110 ft | 514 kts | 92° |
| 2026-05-06 01:53 | 47.76965 | 70.83032 | 39116 ft | 513 kts | 92° |
| 2026-05-06 01:53 | 47.76596 | 70.93620 | 39118 ft | 513 kts | 92° |
| 2026-05-06 01:54 | 47.76221 | 71.04134 | 39121 ft | 513 kts | 92° |
| 2026-05-06 01:54 | 47.75834 | 71.14702 | 39119 ft | 512 kts | 92° |
| 2026-05-06 01:55 | 47.75438 | 71.25270 | 39126 ft | 512 kts | 92° |
| 2026-05-06 01:55 | 47.75033 | 71.35818 | 39121 ft | 511 kts | 92° |
| 2026-05-06 01:56 | 47.74621 | 71.46287 | 39126 ft | 511 kts | 92° |
| 2026-05-06 01:56 | 47.74197 | 71.56821 | 39131 ft | 511 kts | 92° |
| 2026-05-06 01:57 | 47.73764 | 71.67345 | 39130 ft | 510 kts | 93° |
| 2026-05-06 01:57 | 47.73322 | 71.77871 | 39139 ft | 510 kts | 93° |
| 2026-05-06 01:58 | 47.72851 | 71.88386 | 39140 ft | 510 kts | 94° |
| 2026-05-06 01:58 | 47.72246 | 71.98815 | 39148 ft | 510 kts | 95° |
| 2026-05-06 01:59 | 47.71603 | 72.09306 | 39150 ft | 510 kts | 95° |
| 2026-05-06 01:59 | 47.70971 | 72.19766 | 39154 ft | 510 kts | 95° |
| 2026-05-06 02:00 | 47.70342 | 72.30255 | 39149 ft | 509 kts | 95° |
| 2026-05-06 02:00 | 47.69711 | 72.40669 | 39150 ft | 509 kts | 95° |
| 2026-05-06 02:01 | 47.69066 | 72.51125 | 39151 ft | 509 kts | 95° |
| 2026-05-06 02:01 | 47.68412 | 72.61582 | 39153 ft | 509 kts | 95° |
| 2026-05-06 02:02 | 47.67748 | 72.72022 | 39151 ft | 508 kts | 95° |
| 2026-05-06 02:02 | 47.67080 | 72.82384 | 39154 ft | 508 kts | 95° |
| 2026-05-06 02:03 | 47.66397 | 72.92817 | 39155 ft | 507 kts | 95° |
| 2026-05-06 02:03 | 47.65707 | 73.03222 | 39156 ft | 507 kts | 95° |
| 2026-05-06 02:04 | 47.65008 | 73.13629 | 39153 ft | 507 kts | 95° |
| 2026-05-06 02:04 | 47.64302 | 73.23975 | 39160 ft | 507 kts | 96° |
| 2026-05-06 02:05 | 47.63584 | 73.34380 | 39156 ft | 507 kts | 96° |
| 2026-05-06 02:05 | 47.62856 | 73.44780 | 39159 ft | 507 kts | 96° |
| 2026-05-06 02:06 | 47.62118 | 73.55183 | 39157 ft | 507 kts | 96° |
| 2026-05-06 02:06 | 47.61371 | 73.65571 | 39157 ft | 507 kts | 96° |
| 2026-05-06 02:07 | 47.60621 | 73.75886 | 39158 ft | 507 kts | 96° |
| 2026-05-06 02:07 | 47.59856 | 73.86269 | 39156 ft | 507 kts | 96° |
| 2026-05-06 02:08 | 47.59081 | 73.96651 | 39165 ft | 507 kts | 96° |
| 2026-05-06 02:08 | 47.58297 | 74.07031 | 39164 ft | 507 kts | 96° |
| 2026-05-06 02:09 | 47.57510 | 74.17320 | 39158 ft | 506 kts | 96° |
| 2026-05-06 02:09 | 47.56709 | 74.27676 | 39161 ft | 506 kts | 97° |
| 2026-05-06 02:10 | 47.55900 | 74.38012 | 39152 ft | 506 kts | 97° |
| 2026-05-06 02:10 | 47.55081 | 74.48346 | 39157 ft | 505 kts | 97° |
| 2026-05-06 02:11 | 47.54259 | 74.58605 | 39157 ft | 505 kts | 97° |
| 2026-05-06 02:11 | 47.53422 | 74.68920 | 39148 ft | 504 kts | 97° |
| 2026-05-06 02:12 | 47.52578 | 74.79221 | 39152 ft | 504 kts | 97° |
| 2026-05-06 02:12 | 47.51726 | 74.89503 | 39149 ft | 503 kts | 97° |
| 2026-05-06 02:13 | 47.50865 | 74.99771 | 39151 ft | 503 kts | 97° |
| 2026-05-06 02:13 | 47.50001 | 75.09967 | 39148 ft | 503 kts | 97° |
| 2026-05-06 02:14 | 47.49123 | 75.20217 | 39155 ft | 502 kts | 97° |
| 2026-05-06 02:14 | 47.48236 | 75.30450 | 39151 ft | 502 kts | 97° |
| 2026-05-06 02:15 | 47.47342 | 75.40665 | 39152 ft | 501 kts | 97° |
| 2026-05-06 02:15 | 47.46445 | 75.50817 | 39151 ft | 501 kts | 97° |
| 2026-05-06 02:16 | 47.45534 | 75.61016 | 39151 ft | 501 kts | 97° |
| 2026-05-06 02:16 | 47.44615 | 75.71198 | 39158 ft | 500 kts | 98° |
| 2026-05-06 02:17 | 47.43687 | 75.81374 | 39150 ft | 500 kts | 98° |
| 2026-05-06 02:17 | 47.42757 | 75.91476 | 39152 ft | 499 kts | 98° |
| 2026-05-06 02:18 | 47.41814 | 76.01614 | 39156 ft | 499 kts | 98° |
| 2026-05-06 02:18 | 47.40860 | 76.11765 | 39151 ft | 498 kts | 98° |
| 2026-05-06 02:19 | 47.39901 | 76.21880 | 39156 ft | 498 kts | 98° |
| 2026-05-06 02:19 | 47.38932 | 76.32002 | 39146 ft | 498 kts | 98° |
| 2026-05-06 02:20 | 47.37472 | 76.47075 | 39152 ft | 497 kts | 98° |
| 2026-05-06 02:21 | 47.36484 | 76.57159 | 39147 ft | 497 kts | 98° |
| 2026-05-06 02:21 | 47.35486 | 76.67243 | 39152 ft | 496 kts | 98° |
| 2026-05-06 02:22 | 47.34487 | 76.77243 | 39155 ft | 496 kts | 98° |
| 2026-05-06 02:22 | 47.33474 | 76.87304 | 39152 ft | 496 kts | 98° |
| 2026-05-06 02:23 | 47.32452 | 76.97354 | 39152 ft | 496 kts | 98° |
| 2026-05-06 02:23 | 47.31424 | 77.07410 | 39145 ft | 496 kts | 98° |
| 2026-05-06 02:24 | 47.30777 | 77.17447 | 39156 ft | 496 kts | 93° |
| 2026-05-06 02:24 | 47.30365 | 77.27581 | 39152 ft | 495 kts | 93° |
| 2026-05-06 02:25 | 47.29901 | 77.37705 | 39154 ft | 495 kts | 94° |
| 2026-05-06 02:25 | 47.29368 | 77.47821 | 39155 ft | 495 kts | 94° |
| 2026-05-06 02:26 | 47.28805 | 77.57927 | 39156 ft | 495 kts | 94° |
| 2026-05-06 02:26 | 47.28235 | 77.67966 | 39151 ft | 495 kts | 94° |
| 2026-05-06 02:27 | 47.27657 | 77.78062 | 39149 ft | 495 kts | 94° |
| 2026-05-06 02:27 | 47.27072 | 77.88147 | 39144 ft | 494 kts | 94° |
| 2026-05-06 02:28 | 47.26478 | 77.98232 | 39150 ft | 494 kts | 94° |
| 2026-05-06 02:28 | 47.25878 | 78.08252 | 39144 ft | 494 kts | 94° |
| 2026-05-06 02:29 | 47.25267 | 78.18331 | 39152 ft | 494 kts | 95° |
| 2026-05-06 02:29 | 47.24647 | 78.28400 | 39146 ft | 494 kts | 95° |
| 2026-05-06 02:30 | 47.24018 | 78.38453 | 39161 ft | 494 kts | 95° |
| 2026-05-06 02:30 | 47.23385 | 78.48444 | 39160 ft | 494 kts | 95° |
| 2026-05-06 02:31 | 47.22739 | 78.58499 | 39154 ft | 494 kts | 95° |
| 2026-05-06 02:31 | 47.22084 | 78.68555 | 39162 ft | 493 kts | 95° |
| 2026-05-06 02:32 | 47.21422 | 78.78585 | 39159 ft | 493 kts | 95° |
| 2026-05-06 02:32 | 47.20754 | 78.88564 | 39161 ft | 493 kts | 95° |
| 2026-05-06 02:33 | 47.20074 | 78.98584 | 39159 ft | 493 kts | 95° |
| 2026-05-06 02:33 | 47.19847 | 79.01909 | 39161 ft | 493 kts | 95° |
| 2026-05-06 02:34 | 47.18690 | 79.18637 | 39161 ft | 492 kts | 95° |
| 2026-05-06 02:34 | 47.17966 | 79.28642 | 39164 ft | 492 kts | 95° |
| 2026-05-06 02:35 | 47.17228 | 79.38574 | 39158 ft | 492 kts | 95° |
| 2026-05-06 02:35 | 47.16481 | 79.48573 | 39155 ft | 492 kts | 96° |
| 2026-05-06 02:36 | 47.15728 | 79.58567 | 39154 ft | 492 kts | 96° |
| 2026-05-06 02:36 | 47.14969 | 79.68545 | 39157 ft | 492 kts | 96° |
| 2026-05-06 02:37 | 47.14205 | 79.78460 | 39160 ft | 492 kts | 96° |
| 2026-05-06 02:37 | 47.13429 | 79.88445 | 39158 ft | 492 kts | 96° |
| 2026-05-06 02:38 | 47.12665 | 79.98430 | 39156 ft | 492 kts | 96° |
| 2026-05-06 02:38 | 47.11897 | 80.08399 | 39151 ft | 492 kts | 96° |
| 2026-05-06 02:39 | 47.11123 | 80.18321 | 39152 ft | 492 kts | 96° |
| 2026-05-06 02:39 | 47.10336 | 80.28288 | 39152 ft | 492 kts | 96° |
| 2026-05-06 02:40 | 47.09538 | 80.38265 | 39147 ft | 492 kts | 96° |
| 2026-05-06 02:40 | 47.08732 | 80.48228 | 39155 ft | 492 kts | 96° |
| 2026-05-06 02:41 | 47.07918 | 80.58188 | 39150 ft | 492 kts | 96° |
| 2026-05-06 02:41 | 47.07101 | 80.68083 | 39148 ft | 492 kts | 96° |
| 2026-05-06 02:42 | 47.06270 | 80.78038 | 39146 ft | 492 kts | 96° |
| 2026-05-06 02:42 | 47.05429 | 80.88003 | 39147 ft | 492 kts | 96° |
| 2026-05-06 02:43 | 47.04580 | 80.97952 | 39149 ft | 492 kts | 96° |
| 2026-05-06 02:43 | 47.03732 | 81.07827 | 39150 ft | 492 kts | 96° |
| 2026-05-06 02:44 | 47.02866 | 81.17763 | 39149 ft | 491 kts | 96° |
| 2026-05-06 02:44 | 47.01992 | 81.27695 | 39147 ft | 491 kts | 96° |
| 2026-05-06 02:45 | 47.01109 | 81.37631 | 39148 ft | 491 kts | 96° |
| 2026-05-06 02:45 | 47.00225 | 81.47483 | 39148 ft | 491 kts | 96° |
| 2026-05-06 02:46 | 46.99326 | 81.57407 | 39153 ft | 491 kts | 96° |
| 2026-05-06 02:46 | 46.98419 | 81.67322 | 39146 ft | 491 kts | 96° |
| 2026-05-06 02:47 | 46.97503 | 81.77233 | 39153 ft | 491 kts | 96° |
| 2026-05-06 02:47 | 46.96580 | 81.87130 | 39146 ft | 491 kts | 96° |
| 2026-05-06 02:48 | 46.95656 | 81.96973 | 39147 ft | 491 kts | 96° |
| 2026-05-06 02:48 | 46.94709 | 82.06860 | 39151 ft | 491 kts | 97° |
| 2026-05-06 02:49 | 46.93749 | 82.16739 | 39156 ft | 491 kts | 97° |
| 2026-05-06 02:49 | 46.92780 | 82.26628 | 39160 ft | 491 kts | 97° |
| 2026-05-06 02:50 | 46.91808 | 82.36498 | 39162 ft | 490 kts | 97° |
| 2026-05-06 02:50 | 46.90833 | 82.46300 | 39163 ft | 490 kts | 97° |
| 2026-05-06 02:51 | 46.89845 | 82.56155 | 39163 ft | 490 kts | 97° |
| 2026-05-06 02:51 | 46.88847 | 82.66008 | 39168 ft | 490 kts | 97° |
| 2026-05-06 02:52 | 46.87842 | 82.75856 | 39170 ft | 490 kts | 97° |
| 2026-05-06 02:52 | 46.86671 | 82.85590 | 39162 ft | 491 kts | 104° |
| 2026-05-06 02:53 | 46.83977 | 82.94745 | 39168 ft | 493 kts | 119° |
| 2026-05-06 02:53 | 46.80417 | 83.03309 | 39163 ft | 494 kts | 121° |
| 2026-05-06 02:54 | 46.76724 | 83.11763 | 39164 ft | 494 kts | 121° |
| 2026-05-06 02:54 | 46.73059 | 83.20159 | 39159 ft | 494 kts | 121° |
| 2026-05-06 02:55 | 46.69384 | 83.28631 | 39160 ft | 494 kts | 121° |
| 2026-05-06 02:55 | 46.65716 | 83.37092 | 39163 ft | 494 kts | 121° |
| 2026-05-06 02:56 | 46.61847 | 83.45275 | 39164 ft | 494 kts | 126° |
| 2026-05-06 02:56 | 46.57715 | 83.53257 | 39162 ft | 494 kts | 126° |
| 2026-05-06 02:57 | 46.53597 | 83.61248 | 39157 ft | 494 kts | 126° |
| 2026-05-06 02:57 | 46.49521 | 83.69270 | 39158 ft | 494 kts | 125° |
| 2026-05-06 02:58 | 46.45454 | 83.77312 | 39161 ft | 494 kts | 125° |
| 2026-05-06 02:58 | 46.41412 | 83.85284 | 39159 ft | 494 kts | 125° |
| 2026-05-06 02:59 | 46.37337 | 83.93291 | 39164 ft | 494 kts | 125° |
| 2026-05-06 02:59 | 46.33259 | 84.01280 | 39168 ft | 494 kts | 125° |
| 2026-05-06 03:00 | 46.29171 | 84.09264 | 39173 ft | 494 kts | 125° |
| 2026-05-06 03:00 | 46.25081 | 84.17237 | 39175 ft | 494 kts | 125° |
| 2026-05-06 03:01 | 46.20995 | 84.25133 | 39176 ft | 494 kts | 126° |
| 2026-05-06 03:01 | 46.16866 | 84.33060 | 39177 ft | 494 kts | 126° |
| 2026-05-06 03:02 | 46.12733 | 84.40981 | 39175 ft | 494 kts | 126° |
| 2026-05-06 03:02 | 46.08601 | 84.48887 | 39175 ft | 494 kts | 126° |
| 2026-05-06 03:03 | 46.04494 | 84.56726 | 39166 ft | 494 kts | 126° |
| 2026-05-06 03:03 | 46.00352 | 84.64611 | 39172 ft | 494 kts | 126° |
| 2026-05-06 03:04 | 45.96205 | 84.72481 | 39167 ft | 494 kts | 126° |
| 2026-05-06 03:04 | 45.92053 | 84.80340 | 39168 ft | 494 kts | 126° |
| 2026-05-06 03:05 | 45.87917 | 84.88145 | 39169 ft | 494 kts | 126° |
| 2026-05-06 03:05 | 45.83755 | 84.95978 | 39168 ft | 494 kts | 126° |
| 2026-05-06 03:06 | 45.79583 | 85.03809 | 39165 ft | 494 kts | 126° |
| 2026-05-06 03:06 | 45.75402 | 85.11634 | 39162 ft | 494 kts | 126° |
| 2026-05-06 03:07 | 45.71244 | 85.19397 | 39163 ft | 495 kts | 126° |
| 2026-05-06 03:07 | 45.67055 | 85.27222 | 39164 ft | 495 kts | 126° |
| 2026-05-06 03:08 | 45.62878 | 85.35047 | 39162 ft | 495 kts | 126° |
| 2026-05-06 03:08 | 45.58693 | 85.42866 | 39159 ft | 496 kts | 126° |
| 2026-05-06 03:09 | 45.54497 | 85.50681 | 39158 ft | 496 kts | 126° |
| 2026-05-06 03:09 | 45.50321 | 85.58434 | 39159 ft | 496 kts | 126° |
| 2026-05-06 03:10 | 45.46109 | 85.66231 | 39158 ft | 496 kts | 126° |
| 2026-05-06 03:10 | 45.41894 | 85.74013 | 39154 ft | 497 kts | 126° |
| 2026-05-06 03:11 | 45.37670 | 85.81792 | 39153 ft | 497 kts | 126° |
| 2026-05-06 03:11 | 45.33468 | 85.89508 | 39160 ft | 497 kts | 126° |
| 2026-05-06 03:12 | 45.29231 | 85.97268 | 39156 ft | 497 kts | 126° |
| 2026-05-06 03:12 | 45.24983 | 86.05027 | 39157 ft | 497 kts | 126° |
| 2026-05-06 03:13 | 45.20735 | 86.12765 | 39159 ft | 497 kts | 126° |
| 2026-05-06 03:13 | 45.16507 | 86.20445 | 39161 ft | 498 kts | 126° |
| 2026-05-06 03:14 | 45.12246 | 86.28162 | 39163 ft | 498 kts | 126° |
| 2026-05-06 03:14 | 45.07973 | 86.35883 | 39165 ft | 498 kts | 126° |
| 2026-05-06 03:15 | 45.03696 | 86.43587 | 39168 ft | 498 kts | 126° |
| 2026-05-06 03:15 | 44.99447 | 86.51221 | 39166 ft | 498 kts | 126° |
| 2026-05-06 03:16 | 44.95163 | 86.58899 | 39170 ft | 498 kts | 126° |
| 2026-05-06 03:16 | 44.90867 | 86.66578 | 39175 ft | 498 kts | 126° |
| 2026-05-06 03:17 | 44.86573 | 86.74232 | 39176 ft | 498 kts | 126° |
| 2026-05-06 03:17 | 44.82294 | 86.81841 | 39179 ft | 498 kts | 126° |
| 2026-05-06 03:18 | 44.77941 | 86.89438 | 39181 ft | 499 kts | 127° |
| 2026-05-06 03:18 | 44.73552 | 86.96999 | 39181 ft | 499 kts | 127° |
| 2026-05-06 03:19 | 44.69174 | 87.04560 | 39184 ft | 499 kts | 127° |
| 2026-05-06 03:19 | 44.64796 | 87.12133 | 39187 ft | 499 kts | 127° |
| 2026-05-06 03:20 | 44.58258 | 87.23416 | 39186 ft | 499 kts | 127° |
| 2026-05-06 03:20 | 44.53880 | 87.30968 | 39189 ft | 498 kts | 126° |
| 2026-05-06 03:21 | 44.49659 | 87.38663 | 39188 ft | 498 kts | 125° |
| 2026-05-06 03:21 | 44.45524 | 87.46350 | 39188 ft | 498 kts | 125° |
| 2026-05-06 03:22 | 44.41337 | 87.54060 | 39188 ft | 498 kts | 126° |
| 2026-05-06 03:22 | 44.37124 | 87.61743 | 39186 ft | 498 kts | 126° |
| 2026-05-06 03:23 | 44.32902 | 87.69405 | 39187 ft | 497 kts | 126° |
| 2026-05-06 03:23 | 44.28735 | 87.77112 | 39187 ft | 497 kts | 125° |
| 2026-05-06 03:24 | 44.24631 | 87.84783 | 39194 ft | 497 kts | 125° |
| 2026-05-06 03:24 | 44.20886 | 87.92843 | 39200 ft | 494 kts | 113° |
| 2026-05-06 03:25 | 44.18947 | 88.01924 | 39210 ft | 488 kts | 95° |
| 2026-05-06 03:25 | 44.19222 | 88.11286 | 39210 ft | 484 kts | 78° |
| 2026-05-06 03:26 | 44.20529 | 88.20411 | 39213 ft | 484 kts | 76° |
| 2026-05-06 03:26 | 44.21962 | 88.29575 | 39213 ft | 484 kts | 76° |
| 2026-05-06 03:27 | 44.23358 | 88.38752 | 39211 ft | 484 kts | 76° |
| 2026-05-06 03:27 | 44.24714 | 88.47939 | 39206 ft | 484 kts | 76° |
| 2026-05-06 03:28 | 44.26042 | 88.57071 | 39206 ft | 484 kts | 76° |
| 2026-05-06 03:28 | 44.27372 | 88.66270 | 39198 ft | 483 kts | 76° |
| 2026-05-06 03:29 | 44.28694 | 88.75457 | 39199 ft | 483 kts | 76° |
| 2026-05-06 03:29 | 44.30011 | 88.84654 | 39193 ft | 483 kts | 77° |
| 2026-05-06 03:30 | 44.31312 | 88.93795 | 39196 ft | 483 kts | 77° |
| 2026-05-06 03:30 | 44.32611 | 89.02984 | 39192 ft | 483 kts | 77° |
| 2026-05-06 03:31 | 44.33905 | 89.12190 | 39194 ft | 483 kts | 77° |
| 2026-05-06 03:31 | 44.35189 | 89.21386 | 39194 ft | 482 kts | 77° |
| 2026-05-06 03:32 | 44.36458 | 89.30526 | 39193 ft | 482 kts | 77° |
| 2026-05-06 03:32 | 44.37728 | 89.39733 | 39192 ft | 482 kts | 77° |
| 2026-05-06 03:33 | 44.38991 | 89.48943 | 39192 ft | 482 kts | 77° |
| 2026-05-06 03:33 | 44.40245 | 89.58151 | 39192 ft | 482 kts | 77° |
| 2026-05-06 03:34 | 44.41106 | 89.67386 | 39190 ft | 485 kts | 88° |
| 2026-05-06 03:34 | 44.40171 | 89.76746 | 39194 ft | 490 kts | 102° |
| 2026-05-06 03:35 | 44.38276 | 89.85911 | 39194 ft | 491 kts | 105° |
| 2026-05-06 03:35 | 44.36235 | 89.95029 | 39193 ft | 492 kts | 105° |
| 2026-05-06 03:36 | 44.34202 | 90.04152 | 39190 ft | 492 kts | 105° |
| 2026-05-06 03:36 | 44.32205 | 90.13214 | 39194 ft | 492 kts | 105° |
| 2026-05-06 03:37 | 44.30198 | 90.22340 | 39198 ft | 492 kts | 105° |
| 2026-05-06 03:37 | 44.28182 | 90.31467 | 39201 ft | 492 kts | 105° |
| 2026-05-06 03:38 | 44.26155 | 90.40599 | 39201 ft | 493 kts | 105° |
| 2026-05-06 03:38 | 44.24134 | 90.49659 | 39194 ft | 493 kts | 105° |
| 2026-05-06 03:39 | 44.22090 | 90.58785 | 39206 ft | 493 kts | 105° |
| 2026-05-06 03:39 | 44.20040 | 90.67900 | 39206 ft | 493 kts | 106° |
| 2026-05-06 03:40 | 44.17994 | 90.76961 | 39205 ft | 494 kts | 106° |
| 2026-05-06 03:40 | 44.15923 | 90.86092 | 39199 ft | 494 kts | 106° |
| 2026-05-06 03:41 | 44.13845 | 90.95215 | 39208 ft | 495 kts | 106° |
| 2026-05-06 03:41 | 44.11757 | 91.04345 | 39210 ft | 495 kts | 106° |
| 2026-05-06 03:42 | 44.09664 | 91.13475 | 39215 ft | 495 kts | 107° |
| 2026-05-06 03:42 | 44.07573 | 91.22546 | 39214 ft | 496 kts | 107° |
| 2026-05-06 03:43 | 44.05459 | 91.31678 | 39215 ft | 497 kts | 107° |
| 2026-05-06 03:43 | 44.03336 | 91.40816 | 39229 ft | 497 kts | 107° |
| 2026-05-06 03:44 | 44.01201 | 91.49951 | 39222 ft | 498 kts | 107° |
| 2026-05-06 03:44 | 43.99048 | 91.59028 | 39225 ft | 498 kts | 107° |
| 2026-05-06 03:45 | 43.96871 | 91.68157 | 39222 ft | 498 kts | 108° |
| 2026-05-06 03:45 | 43.94690 | 91.77297 | 39240 ft | 499 kts | 108° |
| 2026-05-06 03:46 | 43.92502 | 91.86440 | 39234 ft | 499 kts | 108° |
| 2026-05-06 03:46 | 43.90306 | 91.95571 | 39237 ft | 499 kts | 108° |
| 2026-05-06 03:47 | 43.88118 | 92.04641 | 39239 ft | 499 kts | 108° |
| 2026-05-06 03:47 | 43.85905 | 92.13763 | 39237 ft | 500 kts | 108° |
| 2026-05-06 03:48 | 43.83683 | 92.22893 | 39238 ft | 500 kts | 108° |
| 2026-05-06 03:48 | 43.81455 | 92.32012 | 39240 ft | 501 kts | 108° |
| 2026-05-06 03:49 | 43.79229 | 92.41085 | 39236 ft | 501 kts | 108° |
| 2026-05-06 03:49 | 43.76980 | 92.50215 | 39235 ft | 502 kts | 109° |
| 2026-05-06 03:50 | 43.74721 | 92.59351 | 39234 ft | 502 kts | 109° |
| 2026-05-06 03:50 | 43.72454 | 92.68486 | 39233 ft | 503 kts | 109° |
| 2026-05-06 03:51 | 43.70188 | 92.77576 | 39237 ft | 503 kts | 109° |
| 2026-05-06 03:51 | 43.67899 | 92.86722 | 39234 ft | 504 kts | 109° |
| 2026-05-06 03:52 | 43.65601 | 92.95871 | 39240 ft | 505 kts | 109° |
| 2026-05-06 03:52 | 43.63325 | 93.05057 | 39244 ft | 506 kts | 108° |
| 2026-05-06 03:53 | 43.61136 | 93.14281 | 39248 ft | 506 kts | 108° |
| 2026-05-06 03:53 | 43.58958 | 93.23458 | 39249 ft | 507 kts | 108° |
| 2026-05-06 03:54 | 43.56743 | 93.32688 | 39253 ft | 507 kts | 108° |
| 2026-05-06 03:54 | 43.54511 | 93.41911 | 39249 ft | 508 kts | 108° |
| 2026-05-06 03:55 | 43.52268 | 93.51137 | 39249 ft | 508 kts | 109° |
| 2026-05-06 03:55 | 43.50012 | 93.60382 | 39249 ft | 509 kts | 109° |
| 2026-05-06 03:56 | 43.47765 | 93.69551 | 39248 ft | 510 kts | 109° |
| 2026-05-06 03:56 | 43.45491 | 93.78801 | 39251 ft | 510 kts | 109° |
| 2026-05-06 03:57 | 43.43207 | 93.88051 | 39250 ft | 511 kts | 109° |
| 2026-05-06 03:57 | 43.40912 | 93.97308 | 39253 ft | 511 kts | 109° |
| 2026-05-06 03:58 | 43.38624 | 94.06497 | 39258 ft | 512 kts | 109° |
| 2026-05-06 03:58 | 43.36313 | 94.15744 | 39256 ft | 512 kts | 109° |
| 2026-05-06 03:59 | 43.33989 | 94.25003 | 39255 ft | 513 kts | 109° |
| 2026-05-06 03:59 | 43.31657 | 94.34262 | 39258 ft | 513 kts | 109° |
| 2026-05-06 04:00 | 43.29330 | 94.43464 | 39256 ft | 514 kts | 109° |
| 2026-05-06 04:00 | 43.26975 | 94.52738 | 39250 ft | 514 kts | 110° |
| 2026-05-06 04:01 | 43.24611 | 94.62011 | 39246 ft | 515 kts | 110° |
| 2026-05-06 04:01 | 43.22240 | 94.71279 | 39237 ft | 516 kts | 110° |
| 2026-05-06 04:02 | 43.19873 | 94.80492 | 39227 ft | 516 kts | 110° |
| 2026-05-06 04:02 | 43.17475 | 94.89787 | 39221 ft | 517 kts | 110° |
| 2026-05-06 04:03 | 43.15064 | 94.99079 | 39211 ft | 518 kts | 110° |
| 2026-05-06 04:03 | 43.11678 | 95.07726 | 39207 ft | 515 kts | 129° |
| 2026-05-06 04:04 | 43.06523 | 95.14400 | 39203 ft | 510 kts | 146° |
| 2026-05-06 04:04 | 43.00743 | 95.19895 | 39202 ft | 510 kts | 149° |
| 2026-05-06 04:05 | 42.94833 | 95.25266 | 39203 ft | 510 kts | 149° |
| 2026-05-06 04:05 | 42.88933 | 95.30664 | 39193 ft | 511 kts | 149° |
| 2026-05-06 04:06 | 42.84043 | 95.35176 | 39190 ft | 511 kts | 149° |
| 2026-05-06 04:06 | 42.77211 | 95.41491 | 39187 ft | 511 kts | 149° |
| 2026-05-06 04:07 | 42.71326 | 95.46918 | 39191 ft | 511 kts | 149° |
| 2026-05-06 04:07 | 42.66432 | 95.51419 | 39177 ft | 511 kts | 149° |
| 2026-05-06 04:08 | 42.60546 | 95.56820 | 39180 ft | 511 kts | 149° |
| 2026-05-06 04:08 | 42.53691 | 95.63094 | 39177 ft | 511 kts | 150° |
| 2026-05-06 04:09 | 42.48750 | 95.67606 | 39180 ft | 512 kts | 150° |
| 2026-05-06 04:09 | 42.43361 | 95.73866 | 39187 ft | 520 kts | 133° |
| 2026-05-06 04:10 | 42.41233 | 95.77842 | 39188 ft | 524 kts | 122° |
| 2026-05-06 04:10 | 42.39651 | 95.82295 | 39188 ft | 527 kts | 111° |
| 2026-05-06 04:10 | 42.38693 | 95.87082 | 39188 ft | 529 kts | 99° |
| 2026-05-06 04:10 | 42.38314 | 95.92041 | 39187 ft | 530 kts | 94° |
| 2026-05-06 04:11 | 42.38023 | 96.02010 | 39199 ft | 531 kts | 91° |
| 2026-05-06 04:11 | 42.37835 | 96.11948 | 39198 ft | 532 kts | 91° |
| 2026-05-06 04:12 | 42.37591 | 96.21951 | 39207 ft | 533 kts | 92° |
| 2026-05-06 04:12 | 42.37299 | 96.31979 | 39208 ft | 534 kts | 92° |
| 2026-05-06 04:13 | 42.36986 | 96.42012 | 39211 ft | 534 kts | 92° |
| 2026-05-06 04:13 | 42.36667 | 96.51985 | 39212 ft | 535 kts | 92° |
| 2026-05-06 04:14 | 42.36339 | 96.62031 | 39212 ft | 535 kts | 92° |
| 2026-05-06 04:14 | 42.36004 | 96.72074 | 39208 ft | 535 kts | 92° |
| 2026-05-06 04:15 | 42.35659 | 96.82140 | 39212 ft | 536 kts | 92° |
| 2026-05-06 04:15 | 42.35304 | 96.92209 | 39199 ft | 536 kts | 92° |
| 2026-05-06 04:16 | 42.34943 | 97.02208 | 39199 ft | 537 kts | 92° |
| 2026-05-06 04:16 | 42.34571 | 97.12290 | 39196 ft | 537 kts | 92° |
| 2026-05-06 04:17 | 42.34189 | 97.22391 | 39195 ft | 538 kts | 92° |
| 2026-05-06 04:17 | 42.33799 | 97.32485 | 39192 ft | 538 kts | 93° |
| 2026-05-06 04:18 | 42.33402 | 97.42521 | 39190 ft | 539 kts | 93° |
| 2026-05-06 04:18 | 42.32993 | 97.52631 | 39187 ft | 539 kts | 93° |
| 2026-05-06 04:19 | 42.32575 | 97.62746 | 39170 ft | 540 kts | 93° |
| 2026-05-06 04:19 | 42.32145 | 97.72951 | 39179 ft | 545 kts | 93° |
| 2026-05-06 04:20 | 42.31703 | 97.83181 | 39178 ft | 546 kts | 94° |
| 2026-05-06 04:20 | 42.31254 | 97.93360 | 39179 ft | 547 kts | 94° |
| 2026-05-06 04:21 | 42.30794 | 98.03614 | 39179 ft | 547 kts | 94° |
| 2026-05-06 04:21 | 42.30324 | 98.13870 | 39181 ft | 548 kts | 94° |
| 2026-05-06 04:22 | 42.29844 | 98.24147 | 39180 ft | 548 kts | 94° |
| 2026-05-06 04:23 | 42.29101 | 98.39506 | 39181 ft | 549 kts | 94° |
| 2026-05-06 04:23 | 42.28567 | 98.49791 | 39180 ft | 550 kts | 94° |
| 2026-05-06 04:24 | 42.28022 | 98.60096 | 39182 ft | 550 kts | 94° |
| 2026-05-06 04:24 | 42.27471 | 98.70416 | 39180 ft | 551 kts | 94° |
| 2026-05-06 04:25 | 42.26916 | 98.80661 | 39182 ft | 552 kts | 94° |
| 2026-05-06 04:25 | 42.26348 | 98.90989 | 39181 ft | 552 kts | 94° |
| 2026-05-06 04:26 | 42.25769 | 99.01340 | 39182 ft | 553 kts | 94° |
| 2026-05-06 04:26 | 42.25180 | 99.11692 | 39177 ft | 553 kts | 94° |
| 2026-05-06 04:27 | 42.24586 | 99.21974 | 39176 ft | 554 kts | 95° |
| 2026-05-06 04:27 | 42.23978 | 99.32350 | 39172 ft | 554 kts | 95° |
| 2026-05-06 04:28 | 42.23360 | 99.42728 | 39177 ft | 555 kts | 95° |
| 2026-05-06 04:28 | 42.22736 | 99.53036 | 39171 ft | 555 kts | 95° |
| 2026-05-06 04:29 | 42.22098 | 99.63422 | 39173 ft | 556 kts | 95° |
| 2026-05-06 04:29 | 42.21450 | 99.73817 | 39169 ft | 556 kts | 95° |
| 2026-05-06 04:30 | 42.20793 | 99.84218 | 39171 ft | 557 kts | 95° |
| 2026-05-06 04:30 | 42.20129 | 99.94556 | 39167 ft | 557 kts | 95° |
| 2026-05-06 04:31 | 42.19452 | 100.04971 | 39171 ft | 558 kts | 95° |
| 2026-05-06 04:31 | 42.18765 | 100.15386 | 39170 ft | 558 kts | 95° |
| 2026-05-06 04:32 | 42.18067 | 100.25815 | 39178 ft | 559 kts | 95° |
| 2026-05-06 04:32 | 42.17359 | 100.36255 | 39174 ft | 559 kts | 95° |
| 2026-05-06 04:33 | 42.16646 | 100.46629 | 39177 ft | 560 kts | 95° |
| 2026-05-06 04:33 | 42.15917 | 100.57092 | 39174 ft | 561 kts | 95° |
| 2026-05-06 04:34 | 42.15178 | 100.67557 | 39174 ft | 561 kts | 95° |
| 2026-05-06 04:34 | 42.14434 | 100.77962 | 39175 ft | 562 kts | 96° |
| 2026-05-06 04:35 | 42.13675 | 100.88438 | 39177 ft | 562 kts | 96° |
| 2026-05-06 04:35 | 42.12906 | 100.98925 | 39178 ft | 563 kts | 96° |
| 2026-05-06 04:36 | 42.11225 | 101.09175 | 39179 ft | 560 kts | 109° |
| 2026-05-06 04:36 | 42.08728 | 101.19117 | 39179 ft | 560 kts | 111° |
| 2026-05-06 04:37 | 42.06110 | 101.28930 | 39181 ft | 561 kts | 112° |
| 2026-05-06 04:37 | 42.03474 | 101.38796 | 39173 ft | 561 kts | 112° |
| 2026-05-06 04:38 | 42.00847 | 101.48683 | 39178 ft | 561 kts | 111° |
| 2026-05-06 04:38 | 41.98225 | 101.58558 | 39175 ft | 561 kts | 111° |
| 2026-05-06 04:39 | 41.95590 | 101.68446 | 39179 ft | 562 kts | 112° |
| 2026-05-06 04:39 | 41.92968 | 101.78242 | 39181 ft | 562 kts | 112° |
| 2026-05-06 04:40 | 41.90315 | 101.88109 | 39175 ft | 562 kts | 112° |
| 2026-05-06 04:40 | 41.87653 | 101.97969 | 39177 ft | 562 kts | 112° |
| 2026-05-06 04:41 | 41.84982 | 102.07822 | 39180 ft | 562 kts | 112° |
| 2026-05-06 04:41 | 41.82319 | 102.17610 | 39175 ft | 563 kts | 112° |
| 2026-05-06 04:42 | 41.79629 | 102.27456 | 39179 ft | 563 kts | 112° |
| 2026-05-06 04:42 | 41.76925 | 102.37313 | 39367 ft | 564 kts | 112° |
| 2026-05-06 04:42 | 41.75572 | 102.42232 | 39609 ft | 562 kts | 112° |
| 2026-05-06 04:43 | 41.74221 | 102.47136 | 39854 ft | 561 kts | 112° |
| 2026-05-06 04:43 | 41.72873 | 102.52017 | 40073 ft | 560 kts | 112° |
| 2026-05-06 04:43 | 41.71521 | 102.56903 | 40257 ft | 559 kts | 112° |
| 2026-05-06 04:43 | 41.70188 | 102.61710 | 40451 ft | 559 kts | 112° |
| 2026-05-06 04:44 | 41.68832 | 102.66592 | 40623 ft | 559 kts | 112° |
| 2026-05-06 04:44 | 41.67476 | 102.71464 | 40813 ft | 558 kts | 112° |
| 2026-05-06 04:44 | 41.66125 | 102.76318 | 40982 ft | 558 kts | 112° |
| 2026-05-06 04:44 | 41.64766 | 102.81183 | 41142 ft | 558 kts | 112° |
| 2026-05-06 04:45 | 41.63406 | 102.86042 | 41180 ft | 559 kts | 112° |
| 2026-05-06 04:45 | 41.60677 | 102.95766 | 41189 ft | 559 kts | 112° |
| 2026-05-06 04:46 | 41.57964 | 103.05413 | 41186 ft | 559 kts | 112° |
| 2026-05-06 04:46 | 41.55214 | 103.15128 | 41188 ft | 559 kts | 112° |
| 2026-05-06 04:47 | 41.52458 | 103.24820 | 41188 ft | 559 kts | 112° |
| 2026-05-06 04:47 | 41.49691 | 103.34521 | 41186 ft | 559 kts | 112° |
| 2026-05-06 04:48 | 41.46935 | 103.44147 | 41186 ft | 560 kts | 112° |
| 2026-05-06 04:48 | 41.44151 | 103.53841 | 41185 ft | 560 kts | 112° |
| 2026-05-06 04:49 | 41.41357 | 103.63532 | 41187 ft | 560 kts | 112° |
| 2026-05-06 04:49 | 41.38555 | 103.73212 | 41184 ft | 560 kts | 112° |
| 2026-05-06 04:50 | 41.35763 | 103.82822 | 41186 ft | 561 kts | 112° |
| 2026-05-06 04:50 | 41.32941 | 103.92499 | 41179 ft | 561 kts | 112° |
| 2026-05-06 04:51 | 41.30111 | 104.02169 | 41185 ft | 561 kts | 113° |
| 2026-05-06 04:51 | 41.27269 | 104.11841 | 41185 ft | 561 kts | 113° |
| 2026-05-06 04:52 | 41.24441 | 104.21432 | 41187 ft | 562 kts | 113° |
| 2026-05-06 04:52 | 41.21581 | 104.31096 | 41186 ft | 562 kts | 113° |
| 2026-05-06 04:53 | 41.18714 | 104.40746 | 41186 ft | 562 kts | 113° |
| 2026-05-06 04:53 | 41.15835 | 104.50403 | 41186 ft | 563 kts | 113° |
| 2026-05-06 04:54 | 41.12965 | 104.59994 | 41184 ft | 563 kts | 113° |
| 2026-05-06 04:54 | 41.10066 | 104.69644 | 41185 ft | 564 kts | 113° |
| 2026-05-06 04:55 | 41.07017 | 104.79212 | 41187 ft | 563 kts | 116° |
| 2026-05-06 04:55 | 41.03759 | 104.88647 | 41186 ft | 563 kts | 116° |
| 2026-05-06 04:56 | 41.00495 | 104.98089 | 41184 ft | 564 kts | 116° |
| 2026-05-06 04:56 | 40.97285 | 105.07481 | 41181 ft | 564 kts | 115° |
| 2026-05-06 04:57 | 40.94060 | 105.16946 | 41180 ft | 564 kts | 115° |
| 2026-05-06 04:57 | 40.90830 | 105.26402 | 41177 ft | 564 kts | 115° |
| 2026-05-06 04:58 | 40.87589 | 105.35849 | 41176 ft | 564 kts | 115° |
| 2026-05-06 04:58 | 40.84360 | 105.45228 | 41171 ft | 564 kts | 115° |
| 2026-05-06 04:59 | 40.81105 | 105.54646 | 41173 ft | 564 kts | 115° |
| 2026-05-06 04:59 | 40.77840 | 105.64064 | 41173 ft | 564 kts | 115° |
| 2026-05-06 05:00 | 40.74568 | 105.73473 | 41165 ft | 564 kts | 115° |
| 2026-05-06 05:00 | 40.71308 | 105.82814 | 41156 ft | 564 kts | 115° |
| 2026-05-06 05:01 | 40.68024 | 105.92194 | 41145 ft | 564 kts | 115° |
| 2026-05-06 05:01 | 40.64729 | 106.01575 | 41148 ft | 564 kts | 115° |
| 2026-05-06 05:02 | 40.61427 | 106.10945 | 41142 ft | 564 kts | 115° |
| 2026-05-06 05:02 | 40.58118 | 106.20302 | 41119 ft | 564 kts | 115° |
| 2026-05-06 05:03 | 40.54827 | 106.29579 | 41114 ft | 564 kts | 115° |
| 2026-05-06 05:03 | 40.51500 | 106.38927 | 41105 ft | 564 kts | 115° |
| 2026-05-06 05:04 | 40.48171 | 106.48252 | 41094 ft | 564 kts | 115° |
| 2026-05-06 05:04 | 40.44829 | 106.57584 | 41108 ft | 564 kts | 115° |
| 2026-05-06 05:05 | 40.41500 | 106.66850 | 41104 ft | 565 kts | 115° |
| 2026-05-06 05:05 | 40.38145 | 106.76155 | 41098 ft | 564 kts | 115° |
| 2026-05-06 05:06 | 40.34783 | 106.85449 | 41093 ft | 564 kts | 115° |
| 2026-05-06 05:06 | 40.31874 | 106.94963 | 41094 ft | 561 kts | 101° |
| 2026-05-06 05:06 | 40.31261 | 106.99980 | 41107 ft | 555 kts | 89° |
| 2026-05-06 05:07 | 40.31246 | 107.05014 | 41093 ft | 551 kts | 84° |
| 2026-05-06 05:07 | 40.31681 | 107.14963 | 41104 ft | 550 kts | 81° |
| 2026-05-06 05:08 | 40.32260 | 107.24948 | 41103 ft | 550 kts | 81° |
| 2026-05-06 05:08 | 40.32805 | 107.34940 | 41108 ft | 550 kts | 82° |
| 2026-05-06 05:09 | 40.33306 | 107.44942 | 41099 ft | 549 kts | 82° |
| 2026-05-06 05:09 | 40.33781 | 107.54859 | 41098 ft | 549 kts | 82° |
| 2026-05-06 05:10 | 40.34250 | 107.64855 | 41100 ft | 549 kts | 82° |
| 2026-05-06 05:10 | 40.34711 | 107.74829 | 41093 ft | 549 kts | 82° |
| 2026-05-06 05:11 | 40.35165 | 107.84815 | 41093 ft | 548 kts | 82° |
| 2026-05-06 05:11 | 40.35608 | 107.94727 | 41090 ft | 548 kts | 83° |
| 2026-05-06 05:12 | 40.36046 | 108.04713 | 41086 ft | 548 kts | 83° |
| 2026-05-06 05:12 | 40.36447 | 108.14693 | 41085 ft | 548 kts | 83° |
| 2026-05-06 05:13 | 40.36831 | 108.24681 | 41083 ft | 548 kts | 83° |
| 2026-05-06 05:13 | 40.37208 | 108.34603 | 41081 ft | 548 kts | 83° |
| 2026-05-06 05:14 | 40.37587 | 108.44586 | 41101 ft | 548 kts | 89° |
| 2026-05-06 05:14 | 40.37968 | 108.54640 | 41068 ft | 556 kts | 89° |
| 2026-05-06 05:15 | 40.38325 | 108.64798 | 41062 ft | 559 kts | 89° |
| 2026-05-06 05:15 | 40.38673 | 108.74907 | 41055 ft | 559 kts | 89° |
| 2026-05-06 05:16 | 40.39020 | 108.85085 | 41050 ft | 559 kts | 89° |
| 2026-05-06 05:16 | 40.39358 | 108.95271 | 41051 ft | 559 kts | 89° |
| 2026-05-06 05:17 | 40.39688 | 109.05447 | 41046 ft | 559 kts | 89° |
| 2026-05-06 05:17 | 40.40008 | 109.15633 | 41045 ft | 559 kts | 89° |
| 2026-05-06 05:18 | 40.40318 | 109.25757 | 41036 ft | 559 kts | 89° |
| 2026-05-06 05:18 | 40.40622 | 109.35955 | 41038 ft | 559 kts | 89° |
| 2026-05-06 05:19 | 40.40916 | 109.46164 | 41031 ft | 560 kts | 89° |
| 2026-05-06 05:19 | 40.41201 | 109.56366 | 41034 ft | 560 kts | 89° |
| 2026-05-06 05:20 | 40.41476 | 109.66521 | 41033 ft | 561 kts | 90° |
| 2026-05-06 05:20 | 40.41744 | 109.76745 | 41032 ft | 561 kts | 90° |
| 2026-05-06 05:21 | 40.42003 | 109.86980 | 41028 ft | 562 kts | 90° |
| 2026-05-06 05:21 | 40.42254 | 109.97232 | 41032 ft | 562 kts | 90° |
| 2026-05-06 05:22 | 40.42343 | 110.07406 | 41029 ft | 562 kts | 93° |
| 2026-05-06 05:22 | 40.42229 | 110.17666 | 41027 ft | 562 kts | 93° |
| 2026-05-06 05:23 | 40.42121 | 110.27919 | 41026 ft | 562 kts | 93° |
| 2026-05-06 05:23 | 40.41995 | 110.43307 | 41016 ft | 563 kts | 93° |
| 2026-05-06 05:24 | 40.41912 | 110.53515 | 41015 ft | 563 kts | 93° |
| 2026-05-06 05:24 | 40.41821 | 110.63793 | 41009 ft | 563 kts | 94° |
| 2026-05-06 05:25 | 40.41719 | 110.74068 | 41014 ft | 564 kts | 94° |
| 2026-05-06 05:25 | 40.41608 | 110.84367 | 41006 ft | 564 kts | 94° |
| 2026-05-06 05:26 | 40.41487 | 110.94596 | 41017 ft | 565 kts | 94° |
| 2026-05-06 05:26 | 40.41358 | 111.04899 | 41007 ft | 565 kts | 94° |
| 2026-05-06 05:27 | 40.41219 | 111.15212 | 41001 ft | 566 kts | 94° |
| 2026-05-06 05:27 | 40.41070 | 111.25535 | 41006 ft | 566 kts | 94° |
| 2026-05-06 05:28 | 40.40917 | 111.35795 | 41003 ft | 567 kts | 94° |
| 2026-05-06 05:28 | 40.40747 | 111.46141 | 41001 ft | 567 kts | 94° |
| 2026-05-06 05:29 | 40.40566 | 111.56497 | 41009 ft | 568 kts | 95° |
| 2026-05-06 05:29 | 40.40377 | 111.66865 | 41012 ft | 568 kts | 95° |
| 2026-05-06 05:30 | 40.40181 | 111.77158 | 41007 ft | 569 kts | 95° |
| 2026-05-06 05:30 | 40.39975 | 111.87520 | 41010 ft | 569 kts | 95° |
| 2026-05-06 05:31 | 40.39595 | 111.92656 | 41030 ft | 561 kts | 108° |
| 2026-05-06 05:31 | 40.38367 | 111.97442 | 41013 ft | 546 kts | 123° |
| 2026-05-06 05:31 | 40.36385 | 112.01575 | 41010 ft | 527 kts | 139° |
| 2026-05-06 05:31 | 40.33806 | 112.04822 | 41011 ft | 506 kts | 154° |
| 2026-05-06 05:32 | 40.30820 | 112.07018 | 41001 ft | 482 kts | 170° |
| 2026-05-06 05:32 | 40.27654 | 112.08052 | 41007 ft | 458 kts | 185° |
| 2026-05-06 05:32 | 40.24596 | 112.07917 | 41010 ft | 436 kts | 200° |
| 2026-05-06 05:32 | 40.21805 | 112.06677 | 41006 ft | 417 kts | 216° |
| 2026-05-06 05:33 | 40.19526 | 112.04465 | 41013 ft | 403 kts | 232° |
| 2026-05-06 05:33 | 40.17565 | 112.01855 | 40994 ft | 408 kts | 222° |
| 2026-05-06 05:33 | 40.15048 | 112.00017 | 41013 ft | 425 kts | 207° |
| 2026-05-06 05:33 | 40.12093 | 111.99207 | 41014 ft | 447 kts | 192° |
| 2026-05-06 05:34 | 40.08934 | 111.99534 | 41009 ft | 468 kts | 177° |
| 2026-05-06 05:34 | 40.05800 | 112.00961 | 41008 ft | 489 kts | 163° |
| 2026-05-06 05:34 | 40.02863 | 112.03350 | 41013 ft | 503 kts | 153° |
| 2026-05-06 05:34 | 39.99989 | 112.05809 | 41008 ft | 497 kts | 160° |
| 2026-05-06 05:35 | 39.96931 | 112.07798 | 41008 ft | 485 kts | 168° |
| 2026-05-06 05:35 | 39.93770 | 112.09131 | 41009 ft | 474 kts | 176° |
| 2026-05-06 05:35 | 39.87374 | 112.10967 | 41005 ft | 469 kts | 179° |
| 2026-05-06 05:36 | 39.80960 | 112.12484 | 41003 ft | 468 kts | 180° |
| 2026-05-06 05:36 | 39.74596 | 112.13965 | 41006 ft | 468 kts | 180° |
| 2026-05-06 05:37 | 39.68185 | 112.15495 | 41011 ft | 468 kts | 179° |
| 2026-05-06 05:37 | 39.61775 | 112.17045 | 41004 ft | 468 kts | 179° |
| 2026-05-06 05:38 | 39.55367 | 112.18595 | 41002 ft | 469 kts | 179° |
| 2026-05-06 05:38 | 39.48958 | 112.20142 | 40999 ft | 469 kts | 179° |
| 2026-05-06 05:39 | 39.42590 | 112.21705 | 40999 ft | 469 kts | 179° |
| 2026-05-06 05:39 | 39.36174 | 112.23286 | 40996 ft | 469 kts | 179° |
| 2026-05-06 05:40 | 39.29760 | 112.24859 | 40991 ft | 469 kts | 179° |
| 2026-05-06 05:40 | 39.23351 | 112.26431 | 40995 ft | 469 kts | 179° |
| 2026-05-06 05:41 | 39.16979 | 112.27993 | 40989 ft | 469 kts | 179° |
| 2026-05-06 05:41 | 39.10573 | 112.29558 | 40987 ft | 469 kts | 179° |
| 2026-05-06 05:42 | 39.04162 | 112.31119 | 40986 ft | 469 kts | 178° |
| 2026-05-06 05:42 | 38.97748 | 112.32678 | 40982 ft | 469 kts | 178° |
| 2026-05-06 05:43 | 38.91329 | 112.34236 | 40978 ft | 469 kts | 178° |
| 2026-05-06 05:43 | 38.84961 | 112.35776 | 40980 ft | 469 kts | 178° |
| 2026-05-06 05:44 | 38.78536 | 112.37332 | 40964 ft | 470 kts | 178° |
| 2026-05-06 05:44 | 38.72107 | 112.38880 | 40960 ft | 471 kts | 178° |
| 2026-05-06 05:45 | 38.65665 | 112.40432 | 40950 ft | 471 kts | 178° |
| 2026-05-06 05:45 | 38.59256 | 112.41977 | 40941 ft | 472 kts | 178° |
| 2026-05-06 05:46 | 38.52796 | 112.43530 | 40933 ft | 473 kts | 178° |
| 2026-05-06 05:46 | 38.46325 | 112.45082 | 40937 ft | 473 kts | 178° |
| 2026-05-06 05:47 | 38.39856 | 112.46627 | 40918 ft | 473 kts | 178° |
| 2026-05-06 05:47 | 38.33427 | 112.48140 | 40915 ft | 474 kts | 178° |
| 2026-05-06 05:48 | 38.26941 | 112.49665 | 40909 ft | 474 kts | 178° |
| 2026-05-06 05:48 | 38.20447 | 112.51192 | 40905 ft | 475 kts | 178° |
| 2026-05-06 05:49 | 38.13949 | 112.52719 | 40902 ft | 475 kts | 178° |
| 2026-05-06 05:49 | 38.07481 | 112.54235 | 40894 ft | 476 kts | 178° |
| 2026-05-06 05:50 | 38.00968 | 112.55762 | 40883 ft | 476 kts | 178° |
| 2026-05-06 05:50 | 37.94442 | 112.57288 | 40884 ft | 477 kts | 178° |
| 2026-05-06 05:51 | 37.87915 | 112.58811 | 40880 ft | 478 kts | 178° |
| 2026-05-06 05:51 | 37.81371 | 112.60360 | 40882 ft | 478 kts | 178° |
| 2026-05-06 05:52 | 37.74869 | 112.61909 | 40887 ft | 479 kts | 177° |
| 2026-05-06 05:52 | 37.68338 | 112.63838 | 40883 ft | 485 kts | 173° |
| 2026-05-06 05:53 | 37.61826 | 112.66150 | 40876 ft | 487 kts | 172° |
| 2026-05-06 05:53 | 37.55348 | 112.68427 | 40871 ft | 486 kts | 173° |
| 2026-05-06 05:54 | 37.48813 | 112.70640 | 40860 ft | 486 kts | 173° |
| 2026-05-06 05:54 | 37.42270 | 112.72818 | 40851 ft | 487 kts | 173° |
| 2026-05-06 05:55 | 37.35718 | 112.74993 | 40850 ft | 487 kts | 173° |
| 2026-05-06 05:55 | 37.29158 | 112.77170 | 40850 ft | 488 kts | 173° |
| 2026-05-06 05:56 | 37.22645 | 112.79330 | 40849 ft | 488 kts | 173° |
| 2026-05-06 05:56 | 37.16068 | 112.81506 | 40849 ft | 489 kts | 173° |
| 2026-05-06 05:57 | 37.09488 | 112.83680 | 40842 ft | 489 kts | 173° |
| 2026-05-06 05:57 | 37.02904 | 112.85858 | 40839 ft | 490 kts | 173° |
| 2026-05-06 05:58 | 36.96354 | 112.88023 | 40832 ft | 490 kts | 173° |
| 2026-05-06 05:58 | 36.89772 | 112.90190 | 40826 ft | 490 kts | 173° |
| 2026-05-06 05:59 | 36.83177 | 112.92359 | 40819 ft | 490 kts | 173° |
| 2026-05-06 05:59 | 36.76588 | 112.94523 | 40816 ft | 491 kts | 173° |
| 2026-05-06 06:00 | 36.69974 | 112.96692 | 40812 ft | 492 kts | 173° |
| 2026-05-06 06:00 | 36.63392 | 112.98846 | 40810 ft | 493 kts | 173° |
| 2026-05-06 06:01 | 36.56752 | 113.01017 | 40807 ft | 494 kts | 173° |
| 2026-05-06 06:01 | 36.50109 | 113.03184 | 40807 ft | 494 kts | 173° |
| 2026-05-06 06:02 | 36.43454 | 113.05351 | 40805 ft | 494 kts | 173° |
| 2026-05-06 06:02 | 36.36843 | 113.07500 | 40802 ft | 495 kts | 173° |
| 2026-05-06 06:03 | 36.30172 | 113.09664 | 40802 ft | 495 kts | 173° |
| 2026-05-06 06:03 | 36.23524 | 113.11948 | 40811 ft | 499 kts | 168° |
| 2026-05-06 06:04 | 36.16959 | 113.14797 | 40806 ft | 501 kts | 168° |
| 2026-05-06 06:04 | 36.10451 | 113.17729 | 40812 ft | 501 kts | 167° |
| 2026-05-06 06:05 | 36.03913 | 113.20682 | 40822 ft | 500 kts | 167° |
| 2026-05-06 06:05 | 35.97372 | 113.23619 | 40816 ft | 500 kts | 167° |
| 2026-05-06 06:06 | 35.90826 | 113.26545 | 40819 ft | 500 kts | 167° |
| 2026-05-06 06:06 | 35.84284 | 113.29464 | 40820 ft | 500 kts | 167° |
| 2026-05-06 06:07 | 35.77789 | 113.32375 | 40819 ft | 500 kts | 167° |
| 2026-05-06 06:07 | 35.71251 | 113.35293 | 40819 ft | 500 kts | 167° |
| 2026-05-06 06:08 | 35.64701 | 113.38210 | 40809 ft | 501 kts | 167° |
| 2026-05-06 06:08 | 35.58150 | 113.41131 | 40799 ft | 502 kts | 167° |
| 2026-05-06 06:09 | 35.51624 | 113.44026 | 40795 ft | 502 kts | 167° |
| 2026-05-06 06:09 | 35.45046 | 113.46933 | 40783 ft | 502 kts | 167° |
| 2026-05-06 06:10 | 35.38470 | 113.49857 | 40777 ft | 503 kts | 167° |
| 2026-05-06 06:10 | 35.31882 | 113.52788 | 40768 ft | 504 kts | 167° |
| 2026-05-06 06:11 | 35.25294 | 113.55714 | 40771 ft | 504 kts | 167° |
| 2026-05-06 06:11 | 35.18735 | 113.58621 | 40762 ft | 505 kts | 167° |
| 2026-05-06 06:12 | 35.12129 | 113.61545 | 40755 ft | 506 kts | 167° |
| 2026-05-06 06:12 | 35.05508 | 113.64471 | 40753 ft | 506 kts | 167° |
| 2026-05-06 06:13 | 34.98926 | 113.67375 | 40754 ft | 506 kts | 167° |
| 2026-05-06 06:13 | 34.92304 | 113.70291 | 40757 ft | 507 kts | 167° |
| 2026-05-06 06:14 | 34.85673 | 113.73207 | 40760 ft | 507 kts | 167° |
| 2026-05-06 06:14 | 34.78959 | 113.75673 | 40764 ft | 502 kts | 172° |
| 2026-05-06 06:15 | 34.72198 | 113.77743 | 40767 ft | 502 kts | 172° |
| 2026-05-06 06:15 | 34.65474 | 113.79848 | 40766 ft | 503 kts | 172° |
| 2026-05-06 06:16 | 34.58717 | 113.82048 | 40771 ft | 503 kts | 171° |
| 2026-05-06 06:16 | 34.51949 | 113.84282 | 40772 ft | 504 kts | 171° |
| 2026-05-06 06:17 | 34.45182 | 113.86477 | 40773 ft | 503 kts | 172° |
| 2026-05-06 06:17 | 34.38444 | 113.88589 | 40773 ft | 504 kts | 172° |
| 2026-05-06 06:18 | 34.31660 | 113.90714 | 40773 ft | 504 kts | 172° |
| 2026-05-06 06:18 | 34.24873 | 113.92846 | 40773 ft | 504 kts | 172° |
| 2026-05-06 06:19 | 34.18074 | 113.94985 | 40775 ft | 505 kts | 171° |
| 2026-05-06 06:19 | 34.11269 | 113.97124 | 40780 ft | 505 kts | 171° |
| 2026-05-06 06:20 | 34.04510 | 113.99244 | 40782 ft | 506 kts | 171° |
| 2026-05-06 06:20 | 33.97697 | 114.01378 | 40782 ft | 506 kts | 171° |
| 2026-05-06 06:21 | 33.90882 | 114.03508 | 40783 ft | 506 kts | 171° |
| 2026-05-06 06:21 | 33.84063 | 114.05636 | 40788 ft | 506 kts | 171° |
| 2026-05-06 06:22 | 33.77293 | 114.07745 | 40783 ft | 506 kts | 171° |
| 2026-05-06 06:22 | 33.70484 | 114.09864 | 40794 ft | 506 kts | 171° |
| 2026-05-06 06:23 | 33.63676 | 114.11978 | 40789 ft | 505 kts | 171° |
| 2026-05-06 06:23 | 33.56867 | 114.14089 | 40792 ft | 505 kts | 171° |
| 2026-05-06 06:24 | 33.50071 | 114.16193 | 40793 ft | 504 kts | 171° |
| 2026-05-06 06:24 | 33.43419 | 114.18751 | 40787 ft | 512 kts | 160° |
| 2026-05-06 06:25 | 33.40296 | 114.20858 | 40796 ft | 519 kts | 149° |
| 2026-05-06 06:25 | 33.37489 | 114.23608 | 40792 ft | 525 kts | 139° |
| 2026-05-06 06:25 | 33.33293 | 114.30791 | 40799 ft | 534 kts | 115° |
| 2026-05-06 06:26 | 33.31863 | 114.34892 | 40799 ft | 535 kts | 112° |
| 2026-05-06 06:26 | 33.29291 | 114.43186 | 40802 ft | 536 kts | 111° |
| 2026-05-06 06:27 | 33.26762 | 114.51576 | 40808 ft | 536 kts | 111° |
| 2026-05-06 06:27 | 33.24203 | 114.59943 | 40810 ft | 536 kts | 111° |
| 2026-05-06 06:28 | 33.21607 | 114.68295 | 40810 ft | 536 kts | 111° |
| 2026-05-06 06:28 | 33.19019 | 114.76574 | 40813 ft | 536 kts | 112° |
| 2026-05-06 06:29 | 33.16396 | 114.84887 | 40815 ft | 536 kts | 112° |
| 2026-05-06 06:29 | 33.13761 | 114.93206 | 40817 ft | 536 kts | 112° |
| 2026-05-06 06:30 | 33.11126 | 115.01518 | 40817 ft | 535 kts | 112° |
| 2026-05-06 06:30 | 33.08489 | 115.09823 | 40821 ft | 535 kts | 112° |
| 2026-05-06 06:31 | 33.05847 | 115.18120 | 40823 ft | 535 kts | 112° |
| 2026-05-06 06:31 | 33.03219 | 115.26352 | 40820 ft | 535 kts | 112° |
| 2026-05-06 06:32 | 33.00568 | 115.34635 | 40821 ft | 535 kts | 112° |
| 2026-05-06 06:32 | 32.97912 | 115.42910 | 40821 ft | 535 kts | 112° |
| 2026-05-06 06:33 | 32.95279 | 115.51204 | 40828 ft | 535 kts | 111° |
| 2026-05-06 06:33 | 32.92700 | 115.59442 | 40830 ft | 535 kts | 111° |
| 2026-05-06 06:34 | 32.90100 | 115.67727 | 40828 ft | 535 kts | 111° |
| 2026-05-06 06:34 | 32.86665 | 115.75505 | 40834 ft | 530 kts | 130° |
| 2026-05-06 06:35 | 32.82097 | 115.82356 | 40835 ft | 529 kts | 133° |
| 2026-05-06 06:35 | 32.77346 | 115.89026 | 40836 ft | 529 kts | 133° |
| 2026-05-06 06:36 | 32.72611 | 115.95642 | 40837 ft | 529 kts | 133° |
| 2026-05-06 06:36 | 32.67872 | 116.02303 | 40841 ft | 529 kts | 133° |
| 2026-05-06 06:37 | 32.63130 | 116.08987 | 40837 ft | 529 kts | 133° |
| 2026-05-06 06:37 | 32.58391 | 116.15661 | 40840 ft | 529 kts | 133° |
| 2026-05-06 06:38 | 32.53709 | 116.22304 | 40847 ft | 529 kts | 131° |
| 2026-05-06 06:38 | 32.49071 | 116.29073 | 40845 ft | 529 kts | 131° |
| 2026-05-06 06:39 | 32.44440 | 116.35843 | 40847 ft | 529 kts | 131° |
| 2026-05-06 06:39 | 32.39794 | 116.42595 | 40848 ft | 529 kts | 131° |
| 2026-05-06 06:40 | 32.35162 | 116.49299 | 40851 ft | 529 kts | 131° |
| 2026-05-06 06:40 | 32.30498 | 116.56033 | 40850 ft | 529 kts | 131° |
| 2026-05-06 06:41 | 32.25829 | 116.62762 | 40850 ft | 529 kts | 131° |
| 2026-05-06 06:41 | 32.21158 | 116.69485 | 40854 ft | 529 kts | 131° |
| 2026-05-06 06:42 | 32.16504 | 116.76152 | 40853 ft | 529 kts | 132° |
| 2026-05-06 06:42 | 32.11742 | 116.82773 | 40854 ft | 529 kts | 133° |
| 2026-05-06 06:43 | 32.06959 | 116.89366 | 40858 ft | 529 kts | 133° |
| 2026-05-06 06:43 | 32.02982 | 116.94860 | 40855 ft | 529 kts | 133° |
| 2026-05-06 06:44 | 31.98213 | 117.01460 | 40855 ft | 530 kts | 133° |
| 2026-05-06 06:44 | 31.92673 | 117.09156 | 40856 ft | 530 kts | 133° |
| 2026-05-06 06:45 | 31.87904 | 117.15771 | 40860 ft | 530 kts | 133° |
| 2026-05-06 06:45 | 31.83937 | 117.21263 | 40865 ft | 530 kts | 133° |
| 2026-05-06 06:46 | 31.79538 | 117.28227 | 40873 ft | 533 kts | 120° |
| 2026-05-06 06:46 | 31.78021 | 117.32197 | 40874 ft | 534 kts | 108° |
| 2026-05-06 06:46 | 31.77126 | 117.36417 | 40877 ft | 532 kts | 97° |
| 2026-05-06 06:47 | 31.76341 | 117.45063 | 40883 ft | 533 kts | 93° |
| 2026-05-06 06:47 | 31.75813 | 117.53694 | 40886 ft | 533 kts | 92° |
| 2026-05-06 06:48 | 31.75267 | 117.62376 | 40884 ft | 534 kts | 93° |
| 2026-05-06 06:48 | 31.74672 | 117.71068 | 40887 ft | 534 kts | 93° |
| 2026-05-06 06:49 | 31.74051 | 117.79762 | 40886 ft | 534 kts | 93° |
| 2026-05-06 06:49 | 31.73421 | 117.88471 | 40886 ft | 534 kts | 93° |
| 2026-05-06 06:50 | 31.72791 | 117.97107 | 40890 ft | 535 kts | 93° |
| 2026-05-06 06:50 | 31.72153 | 118.05803 | 40891 ft | 535 kts | 93° |
| 2026-05-06 06:51 | 31.71511 | 118.14505 | 40892 ft | 535 kts | 93° |
| 2026-05-06 06:51 | 31.70907 | 118.23208 | 40893 ft | 534 kts | 93° |
| 2026-05-06 06:52 | 31.70314 | 118.31841 | 40892 ft | 534 kts | 93° |
| 2026-05-06 06:52 | 31.69705 | 118.40533 | 40891 ft | 533 kts | 93° |
| 2026-05-06 06:53 | 31.69086 | 118.49201 | 40900 ft | 533 kts | 93° |
| 2026-05-06 06:53 | 31.68460 | 118.57872 | 40900 ft | 533 kts | 93° |
| 2026-05-06 06:54 | 31.67832 | 118.66484 | 40904 ft | 533 kts | 93° |
| 2026-05-06 06:54 | 31.67194 | 118.75144 | 40909 ft | 533 kts | 93° |
| 2026-05-06 06:55 | 31.66552 | 118.83805 | 40912 ft | 533 kts | 93° |
| 2026-05-06 06:55 | 31.65903 | 118.92474 | 40911 ft | 533 kts | 93° |
| 2026-05-06 06:56 | 31.65255 | 119.01077 | 40909 ft | 533 kts | 93° |
| 2026-05-06 06:56 | 31.64659 | 119.09745 | 40905 ft | 533 kts | 91° |
| 2026-05-06 06:57 | 31.64246 | 119.18411 | 40900 ft | 532 kts | 91° |
| 2026-05-06 06:57 | 31.63901 | 119.27085 | 40903 ft | 532 kts | 90° |
| 2026-05-06 06:58 | 31.63538 | 119.35694 | 40902 ft | 532 kts | 91° |
| 2026-05-06 06:58 | 31.63147 | 119.44359 | 40900 ft | 532 kts | 91° |
| 2026-05-06 06:59 | 31.62732 | 119.53013 | 40903 ft | 531 kts | 91° |
| 2026-05-06 06:59 | 31.62308 | 119.61669 | 40903 ft | 531 kts | 91° |
| 2026-05-06 07:00 | 31.61888 | 119.70318 | 40908 ft | 531 kts | 91° |
| 2026-05-06 07:00 | 31.61498 | 119.78906 | 40909 ft | 531 kts | 91° |
| 2026-05-06 07:01 | 31.61098 | 119.87553 | 40912 ft | 531 kts | 91° |
| 2026-05-06 07:01 | 31.60692 | 119.96191 | 40915 ft | 530 kts | 91° |
| 2026-05-06 07:02 | 31.60279 | 120.04842 | 40915 ft | 530 kts | 91° |
| 2026-05-06 07:02 | 31.59863 | 120.13418 | 40914 ft | 530 kts | 91° |
| 2026-05-06 07:03 | 31.59439 | 120.22045 | 40916 ft | 530 kts | 91° |
| 2026-05-06 07:03 | 31.58947 | 120.30676 | 40908 ft | 531 kts | 96° |
| 2026-05-06 07:03 | 31.58100 | 120.34891 | 40920 ft | 533 kts | 107° |
| 2026-05-06 07:04 | 31.56901 | 120.39008 | 40913 ft | 532 kts | 109° |
| 2026-05-06 07:04 | 31.54439 | 120.47142 | 40914 ft | 533 kts | 109° |
| 2026-05-06 07:05 | 31.51973 | 120.55341 | 40918 ft | 533 kts | 109° |
| 2026-05-06 07:05 | 31.49516 | 120.63529 | 40915 ft | 533 kts | 109° |
| 2026-05-06 07:06 | 31.47056 | 120.71712 | 40918 ft | 533 kts | 109° |
| 2026-05-06 07:06 | 31.44590 | 120.79898 | 40917 ft | 532 kts | 109° |
| 2026-05-06 07:07 | 31.42144 | 120.87999 | 40920 ft | 531 kts | 109° |
| 2026-05-06 07:07 | 31.39677 | 120.96148 | 40923 ft | 531 kts | 109° |
| 2026-05-06 07:08 | 31.37208 | 121.04280 | 40933 ft | 530 kts | 109° |
| 2026-05-06 07:08 | 31.34209 | 121.12121 | 40950 ft | 529 kts | 127° |
| 2026-05-06 07:08 | 31.31783 | 121.15247 | 40939 ft | 525 kts | 142° |
| 2026-05-06 07:09 | 31.28950 | 121.17920 | 40935 ft | 524 kts | 144° |
| 2026-05-06 07:09 | 31.23267 | 121.23279 | 40937 ft | 526 kts | 142° |
| 2026-05-06 07:10 | 31.17682 | 121.28802 | 40936 ft | 526 kts | 141° |
| 2026-05-06 07:10 | 31.12602 | 121.34891 | 40940 ft | 528 kts | 122° |